JBU8032 EHAM-KBOS
Flight info
| Callsign | JBU8032 |
|---|---|
| Flight time | N/A |
| Altitude | 34000 |
| Route | IDRID L980 MANGO DCT ENHAQ DCT GAJIT DCT BAPHU DCT LESLU/M078F340 DCT RODEL/M078F360 NATG NICSO/N0446F380 N258B TUSKY DCT EURRO OOSHN5 |
| Aircraft | A21N/M-SDE2E3FGHIRWXY/LB1 |
Departure
| Time | 2026-05-06 13:40 |
|---|---|
| Airport | Amsterdam Airport Schiphol (EHAM) |
Arrival
| Time | N/A |
|---|---|
| Airport | Boston Logan International Airport (KBOS) |
| Time | Latitude | Longitude | Altitude | Speed | Heading |
|---|---|---|---|---|---|
| 2026-05-06 13:40 | 52.39340 | 4.78119 | 4742 ft | 256 kts | 318° |
| 2026-05-06 13:40 | 52.40621 | 4.75994 | 5311 ft | 266 kts | 317° |
| 2026-05-06 13:40 | 52.41933 | 4.73824 | 6071 ft | 269 kts | 319° |
| 2026-05-06 13:40 | 52.43262 | 4.71640 | 6830 ft | 271 kts | 319° |
| 2026-05-06 13:41 | 52.44611 | 4.69431 | 7526 ft | 275 kts | 316° |
| 2026-05-06 13:41 | 52.45869 | 4.67046 | 8308 ft | 278 kts | 304° |
| 2026-05-06 13:41 | 52.46576 | 4.64089 | 9140 ft | 282 kts | 280° |
| 2026-05-06 13:41 | 52.46729 | 4.60881 | 9968 ft | 283 kts | 274° |
| 2026-05-06 13:42 | 52.46722 | 4.57573 | 10402 ft | 299 kts | 266° |
| 2026-05-06 13:42 | 52.46187 | 4.54164 | 10656 ft | 322 kts | 244° |
| 2026-05-06 13:42 | 52.44713 | 4.51259 | 10905 ft | 345 kts | 220° |
| 2026-05-06 13:42 | 52.42827 | 4.48669 | 11211 ft | 360 kts | 226° |
| 2026-05-06 13:43 | 52.41280 | 4.45402 | 11755 ft | 366 kts | 239° |
| 2026-05-06 13:43 | 52.39999 | 4.41789 | 12479 ft | 368 kts | 242° |
| 2026-05-06 13:43 | 52.38777 | 4.38105 | 13234 ft | 370 kts | 242° |
| 2026-05-06 13:43 | 52.37573 | 4.34422 | 13912 ft | 373 kts | 243° |
| 2026-05-06 13:44 | 52.36341 | 4.30650 | 14474 ft | 378 kts | 243° |
| 2026-05-06 13:44 | 52.35094 | 4.26838 | 15130 ft | 379 kts | 243° |
| 2026-05-06 13:44 | 52.33843 | 4.23015 | 15714 ft | 384 kts | 243° |
| 2026-05-06 13:44 | 52.32575 | 4.19148 | 16235 ft | 389 kts | 242° |
| 2026-05-06 13:45 | 52.31193 | 4.15322 | 16847 ft | 393 kts | 237° |
| 2026-05-06 13:45 | 52.27885 | 4.08150 | 18011 ft | 399 kts | 232° |
| 2026-05-06 13:45 | 52.26163 | 4.04562 | 18465 ft | 403 kts | 233° |
| 2026-05-06 13:46 | 52.24432 | 4.00959 | 19022 ft | 404 kts | 233° |
| 2026-05-06 13:46 | 52.22696 | 3.97343 | 19549 ft | 405 kts | 232° |
| 2026-05-06 13:46 | 52.20949 | 3.93706 | 19964 ft | 410 kts | 232° |
| 2026-05-06 13:46 | 52.19195 | 3.90055 | 20563 ft | 408 kts | 233° |
| 2026-05-06 13:47 | 52.17445 | 3.86417 | 21114 ft | 409 kts | 232° |
| 2026-05-06 13:47 | 52.15681 | 3.82754 | 21517 ft | 414 kts | 232° |
| 2026-05-06 13:47 | 52.13899 | 3.79058 | 22006 ft | 415 kts | 233° |
| 2026-05-06 13:47 | 52.12122 | 3.75377 | 22650 ft | 414 kts | 232° |
| 2026-05-06 13:48 | 52.10332 | 3.71675 | 22956 ft | 420 kts | 232° |
| 2026-05-06 13:48 | 52.08517 | 3.67928 | 23358 ft | 422 kts | 232° |
| 2026-05-06 13:48 | 52.06702 | 3.64184 | 23823 ft | 422 kts | 232° |
| 2026-05-06 13:48 | 52.04897 | 3.60468 | 24096 ft | 426 kts | 232° |
| 2026-05-06 13:49 | 52.03024 | 3.56617 | 24400 ft | 429 kts | 232° |
| 2026-05-06 13:49 | 52.01197 | 3.52869 | 24830 ft | 429 kts | 232° |
| 2026-05-06 13:49 | 51.99349 | 3.49046 | 25111 ft | 432 kts | 233° |
| 2026-05-06 13:49 | 51.97532 | 3.45135 | 25368 ft | 436 kts | 233° |
| 2026-05-06 13:50 | 51.95742 | 3.41180 | 25838 ft | 434 kts | 234° |
| 2026-05-06 13:50 | 51.93955 | 3.37200 | 26005 ft | 440 kts | 234° |
| 2026-05-06 13:50 | 51.92151 | 3.33174 | 26278 ft | 442 kts | 234° |
| 2026-05-06 13:50 | 51.90344 | 3.29153 | 26761 ft | 439 kts | 234° |
| 2026-05-06 13:51 | 51.88539 | 3.25149 | 27094 ft | 441 kts | 234° |
| 2026-05-06 13:51 | 51.86916 | 3.21023 | 27466 ft | 440 kts | 241° |
| 2026-05-06 13:51 | 51.85608 | 3.16513 | 28020 ft | 436 kts | 249° |
| 2026-05-06 13:51 | 51.84735 | 3.11886 | 28290 ft | 438 kts | 257° |
| 2026-05-06 13:52 | 51.84214 | 3.07017 | 28589 ft | 439 kts | 261° |
| 2026-05-06 13:52 | 51.83834 | 3.02135 | 29072 ft | 435 kts | 262° |
| 2026-05-06 13:52 | 51.83521 | 2.97267 | 29456 ft | 435 kts | 263° |
| 2026-05-06 13:52 | 51.83231 | 2.92390 | 29651 ft | 437 kts | 263° |
| 2026-05-06 13:53 | 51.82939 | 2.87491 | 29997 ft | 436 kts | 263° |
| 2026-05-06 13:53 | 51.82641 | 2.82619 | 30326 ft | 434 kts | 263° |
| 2026-05-06 13:53 | 51.82332 | 2.77762 | 30624 ft | 434 kts | 263° |
| 2026-05-06 13:53 | 51.82017 | 2.72979 | 30812 ft | 435 kts | 263° |
| 2026-05-06 13:54 | 51.81690 | 2.68115 | 31064 ft | 434 kts | 262° |
| 2026-05-06 13:54 | 51.81358 | 2.63272 | 31393 ft | 432 kts | 262° |
| 2026-05-06 13:54 | 51.81025 | 2.58457 | 31636 ft | 432 kts | 262° |
| 2026-05-06 13:54 | 51.80688 | 2.53629 | 31809 ft | 433 kts | 263° |
| 2026-05-06 13:55 | 51.80350 | 2.48801 | 32036 ft | 432 kts | 262° |
| 2026-05-06 13:55 | 51.80011 | 2.43987 | 32346 ft | 430 kts | 262° |
| 2026-05-06 13:55 | 51.79671 | 2.39193 | 32596 ft | 429 kts | 263° |
| 2026-05-06 13:55 | 51.79330 | 2.34399 | 32765 ft | 430 kts | 263° |
| 2026-05-06 13:56 | 51.78992 | 2.29671 | 32969 ft | 429 kts | 263° |
| 2026-05-06 13:56 | 51.78644 | 2.24825 | 33198 ft | 428 kts | 262° |
| 2026-05-06 13:56 | 51.78321 | 2.20103 | 33334 ft | 429 kts | 263° |
| 2026-05-06 13:56 | 51.78023 | 2.15289 | 33436 ft | 431 kts | 264° |
| 2026-05-06 13:57 | 51.77742 | 2.10476 | 33634 ft | 430 kts | 264° |
| 2026-05-06 13:57 | 51.77467 | 2.05678 | 33894 ft | 428 kts | 264° |
| 2026-05-06 13:57 | 51.76910 | 1.96083 | 33951 ft | 429 kts | 264° |
| 2026-05-06 13:58 | 51.76335 | 1.86486 | 33953 ft | 429 kts | 264° |
| 2026-05-06 13:58 | 51.75750 | 1.76947 | 33952 ft | 430 kts | 264° |
| 2026-05-06 13:59 | 51.75151 | 1.67345 | 33958 ft | 430 kts | 264° |
| 2026-05-06 13:59 | 51.74645 | 1.59312 | 33957 ft | 429 kts | 264° |
| 2026-05-06 14:00 | 51.74036 | 1.49772 | 33961 ft | 430 kts | 264° |
| 2026-05-06 14:00 | 51.73416 | 1.40182 | 33960 ft | 430 kts | 264° |
| 2026-05-06 14:01 | 51.72787 | 1.30575 | 33958 ft | 430 kts | 264° |
| 2026-05-06 14:01 | 51.72152 | 1.20986 | 33957 ft | 430 kts | 264° |
| 2026-05-06 14:02 | 51.71509 | 1.11395 | 33961 ft | 430 kts | 264° |
| 2026-05-06 14:02 | 51.70861 | 1.01862 | 33960 ft | 430 kts | 264° |
| 2026-05-06 14:03 | 51.70200 | 0.92257 | 33967 ft | 430 kts | 264° |
| 2026-05-06 14:03 | 51.69536 | 0.82716 | 33964 ft | 427 kts | 264° |
| 2026-05-06 14:04 | 51.68749 | 0.73269 | 33968 ft | 428 kts | 261° |
| 2026-05-06 14:04 | 51.67758 | 0.63834 | 33964 ft | 427 kts | 260° |
| 2026-05-06 14:05 | 51.66732 | 0.54384 | 33969 ft | 428 kts | 260° |
| 2026-05-06 14:05 | 51.65722 | 0.44955 | 33967 ft | 427 kts | 260° |
| 2026-05-06 14:06 | 51.64719 | 0.35528 | 33972 ft | 426 kts | 261° |
| 2026-05-06 14:06 | 51.63711 | 0.26107 | 33988 ft | 427 kts | 260° |
| 2026-05-06 14:07 | 51.62703 | 0.16749 | 33991 ft | 426 kts | 260° |
| 2026-05-06 14:07 | 51.61681 | 0.07357 | 33994 ft | 427 kts | 260° |
| 2026-05-06 14:08 | 51.60651 | -0.02042 | 34021 ft | 426 kts | 260° |
| 2026-05-06 14:08 | 51.59613 | -0.11436 | 34035 ft | 426 kts | 260° |
| 2026-05-06 14:09 | 51.58570 | -0.20808 | 34038 ft | 425 kts | 260° |
| 2026-05-06 14:09 | 51.57520 | -0.30168 | 33994 ft | 426 kts | 260° |
| 2026-05-06 14:10 | 51.56470 | -0.39465 | 33993 ft | 426 kts | 260° |
| 2026-05-06 14:10 | 51.55401 | -0.48852 | 33993 ft | 427 kts | 260° |
| 2026-05-06 14:11 | 51.54326 | -0.58238 | 33995 ft | 426 kts | 260° |
| 2026-05-06 14:11 | 51.53244 | -0.67609 | 33990 ft | 427 kts | 260° |
| 2026-05-06 14:12 | 51.52161 | -0.76917 | 33989 ft | 426 kts | 259° |
| 2026-05-06 14:12 | 51.51063 | -0.86280 | 33988 ft | 427 kts | 259° |
| 2026-05-06 14:13 | 51.49960 | -0.95624 | 33990 ft | 426 kts | 259° |
| 2026-05-06 14:13 | 51.48848 | -1.04963 | 33992 ft | 425 kts | 259° |
| 2026-05-06 14:14 | 51.47729 | -1.14290 | 33992 ft | 425 kts | 259° |
| 2026-05-06 14:14 | 51.46604 | -1.23609 | 33990 ft | 425 kts | 259° |
| 2026-05-06 14:15 | 51.45479 | -1.32867 | 33988 ft | 425 kts | 259° |
| 2026-05-06 14:15 | 51.44340 | -1.42176 | 33983 ft | 425 kts | 259° |
| 2026-05-06 14:16 | 51.43193 | -1.51489 | 33985 ft | 425 kts | 259° |
| 2026-05-06 14:16 | 51.42041 | -1.60776 | 33992 ft | 425 kts | 259° |
| 2026-05-06 14:17 | 51.40869 | -1.69990 | 33990 ft | 425 kts | 256° |
| 2026-05-06 14:17 | 51.39105 | -1.79022 | 33995 ft | 425 kts | 252° |
| 2026-05-06 14:18 | 51.37153 | -1.87959 | 33991 ft | 425 kts | 251° |
| 2026-05-06 14:18 | 51.35172 | -1.96863 | 33989 ft | 423 kts | 253° |
| 2026-05-06 14:19 | 51.33930 | -2.05985 | 33992 ft | 422 kts | 261° |
| 2026-05-06 14:19 | 51.33056 | -2.15271 | 33994 ft | 422 kts | 262° |
| 2026-05-06 14:20 | 51.32250 | -2.24573 | 33994 ft | 422 kts | 262° |
| 2026-05-06 14:20 | 51.31434 | -2.33869 | 33993 ft | 422 kts | 262° |
| 2026-05-06 14:21 | 51.30596 | -2.43184 | 33991 ft | 423 kts | 262° |
| 2026-05-06 14:21 | 51.29747 | -2.52448 | 33984 ft | 424 kts | 262° |
| 2026-05-06 14:22 | 51.28884 | -2.61767 | 33983 ft | 424 kts | 262° |
| 2026-05-06 14:22 | 51.28015 | -2.71082 | 33996 ft | 424 kts | 262° |
| 2026-05-06 14:23 | 51.27140 | -2.80386 | 33989 ft | 423 kts | 262° |
| 2026-05-06 14:23 | 51.26258 | -2.89681 | 33995 ft | 423 kts | 262° |
| 2026-05-06 14:24 | 51.25370 | -2.98956 | 33988 ft | 422 kts | 262° |
| 2026-05-06 14:24 | 51.24481 | -3.08161 | 33983 ft | 422 kts | 261° |
| 2026-05-06 14:25 | 51.23578 | -3.17434 | 33997 ft | 422 kts | 261° |
| 2026-05-06 14:25 | 51.22669 | -3.26693 | 33991 ft | 422 kts | 261° |
| 2026-05-06 14:26 | 51.21752 | -3.35945 | 33999 ft | 422 kts | 261° |
| 2026-05-06 14:26 | 51.20830 | -3.45180 | 33994 ft | 421 kts | 261° |
| 2026-05-06 14:27 | 51.19901 | -3.54402 | 33995 ft | 421 kts | 261° |
| 2026-05-06 14:27 | 51.18965 | -3.63623 | 33990 ft | 421 kts | 261° |
| 2026-05-06 14:28 | 51.18046 | -3.72856 | 33986 ft | 421 kts | 264° |
| 2026-05-06 14:28 | 51.17658 | -3.82107 | 33992 ft | 421 kts | 267° |
| 2026-05-06 14:29 | 51.17411 | -3.91438 | 33988 ft | 421 kts | 268° |
| 2026-05-06 14:29 | 51.17188 | -4.00773 | 33987 ft | 421 kts | 268° |
| 2026-05-06 14:30 | 51.16953 | -4.10100 | 34001 ft | 421 kts | 268° |
| 2026-05-06 14:30 | 51.16703 | -4.19428 | 34004 ft | 421 kts | 268° |
| 2026-05-06 14:31 | 51.16442 | -4.28746 | 33999 ft | 421 kts | 268° |
| 2026-05-06 14:31 | 51.16175 | -4.38025 | 33993 ft | 422 kts | 267° |
| 2026-05-06 14:32 | 51.15899 | -4.47370 | 34000 ft | 422 kts | 267° |
| 2026-05-06 14:32 | 51.15615 | -4.56720 | 34008 ft | 422 kts | 267° |
| 2026-05-06 14:33 | 51.15325 | -4.66065 | 34006 ft | 422 kts | 267° |
| 2026-05-06 14:33 | 51.15026 | -4.75410 | 34018 ft | 422 kts | 267° |
| 2026-05-06 14:34 | 51.14723 | -4.84699 | 34010 ft | 423 kts | 267° |
| 2026-05-06 14:34 | 51.14409 | -4.94047 | 34017 ft | 423 kts | 267° |
| 2026-05-06 14:35 | 51.14088 | -5.03411 | 34010 ft | 423 kts | 267° |
| 2026-05-06 14:35 | 51.13759 | -5.12767 | 34011 ft | 423 kts | 267° |
| 2026-05-06 14:36 | 51.13423 | -5.22128 | 34008 ft | 423 kts | 267° |
| 2026-05-06 14:36 | 51.13082 | -5.31425 | 34004 ft | 423 kts | 267° |
| 2026-05-06 14:37 | 51.12730 | -5.40795 | 34013 ft | 423 kts | 267° |
| 2026-05-06 14:37 | 51.12372 | -5.50144 | 34007 ft | 423 kts | 266° |
| 2026-05-06 14:38 | 51.12005 | -5.59509 | 34021 ft | 423 kts | 266° |
| 2026-05-06 14:38 | 51.11632 | -5.68856 | 34020 ft | 423 kts | 266° |
| 2026-05-06 14:39 | 51.11255 | -5.78145 | 34014 ft | 423 kts | 266° |
| 2026-05-06 14:39 | 51.10867 | -5.87503 | 34022 ft | 424 kts | 266° |
| 2026-05-06 14:40 | 51.10471 | -5.96876 | 34019 ft | 424 kts | 266° |
| 2026-05-06 14:40 | 51.10070 | -6.06173 | 34021 ft | 424 kts | 266° |
| 2026-05-06 14:41 | 51.09658 | -6.15529 | 34031 ft | 424 kts | 266° |
| 2026-05-06 14:41 | 51.09239 | -6.24884 | 34019 ft | 424 kts | 266° |
| 2026-05-06 14:42 | 51.08810 | -6.34255 | 34019 ft | 424 kts | 266° |
| 2026-05-06 14:42 | 51.08376 | -6.43617 | 34028 ft | 424 kts | 266° |
| 2026-05-06 14:43 | 51.07934 | -6.52984 | 34024 ft | 424 kts | 266° |
| 2026-05-06 14:43 | 51.07487 | -6.62296 | 34033 ft | 424 kts | 266° |
| 2026-05-06 14:44 | 51.07030 | -6.71661 | 34027 ft | 425 kts | 266° |
| 2026-05-06 14:45 | 51.06331 | -6.85710 | 34033 ft | 425 kts | 266° |
| 2026-05-06 14:45 | 51.05854 | -6.95099 | 34024 ft | 425 kts | 266° |
| 2026-05-06 14:46 | 51.05370 | -7.04472 | 34030 ft | 425 kts | 265° |
| 2026-05-06 14:46 | 51.04881 | -7.13783 | 34030 ft | 425 kts | 265° |
| 2026-05-06 14:47 | 51.04381 | -7.23173 | 34030 ft | 426 kts | 265° |
| 2026-05-06 14:47 | 51.03874 | -7.32559 | 34026 ft | 426 kts | 265° |
| 2026-05-06 14:48 | 51.03358 | -7.41960 | 34031 ft | 426 kts | 265° |
| 2026-05-06 14:48 | 51.02839 | -7.51289 | 34027 ft | 426 kts | 265° |
| 2026-05-06 14:49 | 51.02309 | -7.60667 | 34019 ft | 427 kts | 265° |
| 2026-05-06 14:49 | 51.01770 | -7.70081 | 34027 ft | 428 kts | 265° |
| 2026-05-06 14:50 | 51.01222 | -7.79504 | 34025 ft | 428 kts | 265° |
| 2026-05-06 14:50 | 51.00667 | -7.88917 | 34016 ft | 428 kts | 265° |
| 2026-05-06 14:51 | 51.00105 | -7.98333 | 34015 ft | 428 kts | 265° |
| 2026-05-06 14:51 | 50.99645 | -8.07692 | 34015 ft | 429 kts | 266° |
| 2026-05-06 14:52 | 50.99263 | -8.17158 | 34027 ft | 430 kts | 267° |
| 2026-05-06 14:52 | 50.98877 | -8.26640 | 34020 ft | 430 kts | 266° |
| 2026-05-06 14:53 | 50.98540 | -8.34530 | 34016 ft | 430 kts | 266° |
| 2026-05-06 14:53 | 50.98121 | -8.44003 | 34021 ft | 430 kts | 266° |
| 2026-05-06 14:54 | 50.97693 | -8.53485 | 34020 ft | 431 kts | 266° |
| 2026-05-06 14:54 | 50.97255 | -8.62990 | 34020 ft | 432 kts | 266° |
| 2026-05-06 14:55 | 50.96812 | -8.72467 | 34015 ft | 433 kts | 266° |
| 2026-05-06 14:55 | 50.96359 | -8.81986 | 34015 ft | 433 kts | 266° |
| 2026-05-06 14:56 | 50.95898 | -8.91515 | 34015 ft | 433 kts | 266° |
| 2026-05-06 14:56 | 50.95428 | -9.01040 | 34017 ft | 433 kts | 266° |
| 2026-05-06 14:57 | 50.94954 | -9.10524 | 34024 ft | 434 kts | 266° |
| 2026-05-06 14:57 | 50.94468 | -9.20078 | 34026 ft | 435 kts | 266° |
| 2026-05-06 14:58 | 50.93974 | -9.29626 | 34022 ft | 435 kts | 266° |
| 2026-05-06 14:58 | 50.93472 | -9.39180 | 34018 ft | 435 kts | 266° |
| 2026-05-06 14:59 | 50.92962 | -9.48735 | 34016 ft | 435 kts | 266° |
| 2026-05-06 14:59 | 50.92443 | -9.58321 | 34019 ft | 437 kts | 266° |
| 2026-05-06 15:00 | 50.91914 | -9.67928 | 34020 ft | 437 kts | 266° |
| 2026-05-06 15:00 | 50.91381 | -9.77469 | 34023 ft | 437 kts | 266° |
| 2026-05-06 15:01 | 50.90837 | -9.87069 | 34020 ft | 437 kts | 265° |
| 2026-05-06 15:01 | 50.90285 | -9.96671 | 34017 ft | 437 kts | 265° |
| 2026-05-06 15:02 | 50.89725 | -10.06266 | 34025 ft | 437 kts | 265° |
| 2026-05-06 15:02 | 50.89157 | -10.15865 | 34027 ft | 437 kts | 265° |
| 2026-05-06 15:03 | 50.88580 | -10.25469 | 34026 ft | 438 kts | 265° |
| 2026-05-06 15:03 | 50.88000 | -10.35002 | 34024 ft | 438 kts | 265° |
| 2026-05-06 15:04 | 50.87407 | -10.44610 | 34026 ft | 440 kts | 266° |
| 2026-05-06 15:04 | 50.86803 | -10.54277 | 34028 ft | 442 kts | 265° |
| 2026-05-06 15:05 | 50.86190 | -10.63961 | 34033 ft | 442 kts | 265° |
| 2026-05-06 15:05 | 50.85567 | -10.73647 | 34031 ft | 442 kts | 265° |
| 2026-05-06 15:06 | 50.84938 | -10.83322 | 34034 ft | 442 kts | 265° |
| 2026-05-06 15:06 | 50.84299 | -10.93014 | 34034 ft | 444 kts | 265° |
| 2026-05-06 15:07 | 50.83651 | -11.02748 | 34039 ft | 445 kts | 265° |
| 2026-05-06 15:07 | 50.82998 | -11.12417 | 34039 ft | 445 kts | 265° |
| 2026-05-06 15:08 | 50.82331 | -11.22162 | 34040 ft | 445 kts | 265° |
| 2026-05-06 15:08 | 50.81656 | -11.31912 | 34039 ft | 445 kts | 265° |
| 2026-05-06 15:09 | 50.80970 | -11.41692 | 34046 ft | 449 kts | 265° |
| 2026-05-06 15:09 | 50.80272 | -11.51515 | 34046 ft | 450 kts | 265° |
| 2026-05-06 15:10 | 50.79567 | -11.61298 | 34044 ft | 450 kts | 265° |
| 2026-05-06 15:10 | 50.78852 | -11.71124 | 34047 ft | 450 kts | 265° |
| 2026-05-06 15:11 | 50.78128 | -11.80958 | 34045 ft | 451 kts | 265° |
| 2026-05-06 15:11 | 50.77393 | -11.90828 | 34046 ft | 453 kts | 265° |
| 2026-05-06 15:12 | 50.76648 | -12.00714 | 34044 ft | 453 kts | 265° |
| 2026-05-06 15:12 | 50.75899 | -12.10543 | 34046 ft | 453 kts | 265° |
| 2026-05-06 15:13 | 50.75138 | -12.20424 | 34047 ft | 453 kts | 265° |
| 2026-05-06 15:13 | 50.74367 | -12.30305 | 34050 ft | 454 kts | 265° |
| 2026-05-06 15:14 | 50.73585 | -12.40229 | 34051 ft | 455 kts | 265° |
| 2026-05-06 15:14 | 50.72795 | -12.50157 | 34051 ft | 456 kts | 265° |
| 2026-05-06 15:15 | 50.71996 | -12.60073 | 34051 ft | 456 kts | 265° |
| 2026-05-06 15:15 | 50.71187 | -12.70003 | 34050 ft | 456 kts | 265° |
| 2026-05-06 15:16 | 50.70374 | -12.79874 | 34049 ft | 457 kts | 265° |
| 2026-05-06 15:16 | 50.69546 | -12.89832 | 34108 ft | 458 kts | 265° |
| 2026-05-06 15:16 | 50.69129 | -12.94812 | 34289 ft | 457 kts | 265° |
| 2026-05-06 15:17 | 50.68709 | -12.99789 | 34491 ft | 456 kts | 265° |
| 2026-05-06 15:17 | 50.68289 | -13.04740 | 34673 ft | 455 kts | 265° |
| 2026-05-06 15:17 | 50.67867 | -13.09686 | 34836 ft | 454 kts | 265° |
| 2026-05-06 15:17 | 50.67450 | -13.14558 | 34987 ft | 454 kts | 264° |
| 2026-05-06 15:18 | 50.67026 | -13.19484 | 35110 ft | 453 kts | 265° |
| 2026-05-06 15:18 | 50.66601 | -13.24409 | 35238 ft | 454 kts | 265° |
| 2026-05-06 15:18 | 50.66172 | -13.29338 | 35370 ft | 453 kts | 265° |
| 2026-05-06 15:18 | 50.65742 | -13.34265 | 35515 ft | 453 kts | 264° |
| 2026-05-06 15:19 | 50.65310 | -13.39186 | 35652 ft | 452 kts | 264° |
| 2026-05-06 15:19 | 50.64876 | -13.44101 | 35766 ft | 452 kts | 264° |
| 2026-05-06 15:19 | 50.64447 | -13.48946 | 35852 ft | 453 kts | 264° |
| 2026-05-06 15:20 | 50.63568 | -13.58795 | 36033 ft | 454 kts | 264° |
| 2026-05-06 15:20 | 50.62677 | -13.68674 | 36053 ft | 457 kts | 264° |
| 2026-05-06 15:21 | 50.61775 | -13.78570 | 36052 ft | 456 kts | 264° |
| 2026-05-06 15:21 | 50.60866 | -13.88454 | 36053 ft | 456 kts | 264° |
| 2026-05-06 15:22 | 50.59949 | -13.98334 | 36056 ft | 456 kts | 264° |
| 2026-05-06 15:22 | 50.59029 | -14.08146 | 36056 ft | 456 kts | 264° |
| 2026-05-06 15:23 | 50.58096 | -14.18013 | 36057 ft | 456 kts | 264° |
| 2026-05-06 15:23 | 50.57155 | -14.27869 | 36056 ft | 455 kts | 264° |
| 2026-05-06 15:24 | 50.56206 | -14.37720 | 36058 ft | 455 kts | 264° |
| 2026-05-06 15:24 | 50.55248 | -14.47567 | 36059 ft | 455 kts | 264° |
| 2026-05-06 15:25 | 50.54283 | -14.57409 | 36059 ft | 455 kts | 264° |
| 2026-05-06 15:25 | 50.53315 | -14.67184 | 36059 ft | 455 kts | 264° |
| 2026-05-06 15:26 | 50.52333 | -14.77016 | 36060 ft | 455 kts | 264° |
| 2026-05-06 15:26 | 50.51342 | -14.86843 | 36064 ft | 455 kts | 264° |
| 2026-05-06 15:27 | 50.50429 | -14.96680 | 36060 ft | 453 kts | 269° |
| 2026-05-06 15:27 | 50.50817 | -15.06473 | 36062 ft | 447 kts | 282° |
| 2026-05-06 15:28 | 50.51887 | -15.16082 | 36063 ft | 446 kts | 284° |
| 2026-05-06 15:28 | 50.53072 | -15.25590 | 36063 ft | 446 kts | 284° |
| 2026-05-06 15:29 | 50.54255 | -15.35172 | 36063 ft | 446 kts | 284° |
| 2026-05-06 15:29 | 50.55406 | -15.44757 | 36063 ft | 446 kts | 283° |
| 2026-05-06 15:30 | 50.56537 | -15.54336 | 36057 ft | 444 kts | 283° |
| 2026-05-06 15:30 | 50.57652 | -15.63869 | 36059 ft | 442 kts | 283° |
| 2026-05-06 15:31 | 50.58758 | -15.73378 | 36058 ft | 442 kts | 283° |
| 2026-05-06 15:31 | 50.59851 | -15.82845 | 36063 ft | 442 kts | 283° |
| 2026-05-06 15:32 | 50.61487 | -15.97142 | 36060 ft | 442 kts | 283° |
| 2026-05-06 15:32 | 50.62567 | -16.06675 | 36051 ft | 441 kts | 283° |
| 2026-05-06 15:33 | 50.63636 | -16.16178 | 36056 ft | 440 kts | 283° |
| 2026-05-06 15:33 | 50.64688 | -16.25609 | 36055 ft | 440 kts | 283° |
| 2026-05-06 15:34 | 50.65740 | -16.35113 | 36052 ft | 440 kts | 282° |
| 2026-05-06 15:34 | 50.66783 | -16.44606 | 36052 ft | 439 kts | 282° |
| 2026-05-06 15:35 | 50.67817 | -16.54096 | 36050 ft | 438 kts | 282° |
| 2026-05-06 15:35 | 50.68837 | -16.63509 | 36051 ft | 438 kts | 282° |
| 2026-05-06 15:36 | 50.69854 | -16.72982 | 36048 ft | 438 kts | 282° |
| 2026-05-06 15:36 | 50.70862 | -16.82455 | 36048 ft | 438 kts | 282° |
| 2026-05-06 15:37 | 50.71864 | -16.91939 | 36045 ft | 438 kts | 281° |
| 2026-05-06 15:37 | 50.72857 | -17.01432 | 36045 ft | 438 kts | 281° |
| 2026-05-06 15:38 | 50.73842 | -17.10921 | 36038 ft | 438 kts | 281° |
| 2026-05-06 15:38 | 50.74810 | -17.20335 | 36043 ft | 437 kts | 281° |
| 2026-05-06 15:39 | 50.75778 | -17.29810 | 36043 ft | 436 kts | 280° |
| 2026-05-06 15:39 | 50.76737 | -17.39274 | 36040 ft | 436 kts | 280° |
| 2026-05-06 15:40 | 50.77683 | -17.48697 | 36037 ft | 436 kts | 280° |
| 2026-05-06 15:40 | 50.78627 | -17.58173 | 36042 ft | 436 kts | 280° |
| 2026-05-06 15:41 | 50.79561 | -17.67629 | 36042 ft | 435 kts | 279° |
| 2026-05-06 15:41 | 50.80486 | -17.77079 | 36042 ft | 434 kts | 279° |
| 2026-05-06 15:42 | 50.81401 | -17.86502 | 36038 ft | 433 kts | 279° |
| 2026-05-06 15:42 | 50.82306 | -17.95914 | 36038 ft | 433 kts | 279° |
| 2026-05-06 15:43 | 50.83206 | -18.05351 | 36042 ft | 433 kts | 279° |
| 2026-05-06 15:43 | 50.84092 | -18.14715 | 36041 ft | 433 kts | 279° |
| 2026-05-06 15:44 | 50.84976 | -18.24139 | 36045 ft | 432 kts | 278° |
| 2026-05-06 15:44 | 50.85849 | -18.33537 | 36036 ft | 431 kts | 278° |
| 2026-05-06 15:45 | 50.86711 | -18.42915 | 36037 ft | 430 kts | 278° |
| 2026-05-06 15:45 | 50.87566 | -18.52301 | 36044 ft | 431 kts | 278° |
| 2026-05-06 15:46 | 50.88273 | -18.60113 | 36046 ft | 431 kts | 278° |
| 2026-05-06 15:46 | 50.89252 | -18.71034 | 36042 ft | 431 kts | 277° |
| 2026-05-06 15:47 | 50.90087 | -18.80455 | 36045 ft | 432 kts | 277° |
| 2026-05-06 15:47 | 50.90776 | -18.88297 | 36041 ft | 432 kts | 277° |
| 2026-05-06 15:48 | 50.91598 | -18.97732 | 36045 ft | 432 kts | 277° |
| 2026-05-06 15:48 | 50.92413 | -19.07173 | 36037 ft | 432 kts | 277° |
| 2026-05-06 15:49 | 50.93220 | -19.16616 | 36038 ft | 432 kts | 277° |
| 2026-05-06 15:49 | 50.94016 | -19.26004 | 36042 ft | 433 kts | 277° |
| 2026-05-06 15:50 | 50.94809 | -19.35468 | 36038 ft | 433 kts | 276° |
| 2026-05-06 15:50 | 50.95595 | -19.44940 | 36035 ft | 433 kts | 276° |
| 2026-05-06 15:51 | 50.96373 | -19.54416 | 36035 ft | 433 kts | 276° |
| 2026-05-06 15:51 | 50.97144 | -19.63906 | 36039 ft | 433 kts | 276° |
| 2026-05-06 15:52 | 50.97907 | -19.73384 | 36035 ft | 433 kts | 276° |
| 2026-05-06 15:52 | 50.98657 | -19.82804 | 36039 ft | 433 kts | 276° |
| 2026-05-06 15:53 | 50.99405 | -19.92296 | 36038 ft | 433 kts | 276° |
| 2026-05-06 15:53 | 51.00111 | -20.01796 | 36035 ft | 433 kts | 274° |
| 2026-05-06 15:54 | 51.00558 | -20.11328 | 36039 ft | 432 kts | 272° |
| 2026-05-06 15:54 | 51.00912 | -20.20857 | 36039 ft | 433 kts | 272° |
| 2026-05-06 15:55 | 51.01270 | -20.30345 | 36036 ft | 434 kts | 272° |
| 2026-05-06 15:55 | 51.01642 | -20.39919 | 36034 ft | 434 kts | 272° |
| 2026-05-06 15:56 | 51.02017 | -20.49509 | 36035 ft | 434 kts | 272° |
| 2026-05-06 15:56 | 51.02383 | -20.59081 | 36034 ft | 434 kts | 272° |
| 2026-05-06 15:57 | 51.02741 | -20.68649 | 36031 ft | 434 kts | 272° |
| 2026-05-06 15:57 | 51.03088 | -20.78159 | 36032 ft | 434 kts | 271° |
| 2026-05-06 15:58 | 51.03430 | -20.87728 | 36034 ft | 433 kts | 271° |
| 2026-05-06 15:58 | 51.03762 | -20.97292 | 36034 ft | 433 kts | 271° |
| 2026-05-06 15:59 | 51.04087 | -21.06853 | 36035 ft | 433 kts | 271° |
| 2026-05-06 15:59 | 51.04405 | -21.16424 | 36035 ft | 433 kts | 271° |
| 2026-05-06 16:00 | 51.04714 | -21.25988 | 36036 ft | 433 kts | 271° |
| 2026-05-06 16:00 | 51.05017 | -21.35559 | 36038 ft | 433 kts | 270° |
| 2026-05-06 16:01 | 51.05309 | -21.45069 | 36036 ft | 433 kts | 270° |
| 2026-05-06 16:01 | 51.05595 | -21.54628 | 36036 ft | 433 kts | 270° |
| 2026-05-06 16:02 | 51.05873 | -21.64204 | 36025 ft | 433 kts | 270° |
| 2026-05-06 16:02 | 51.06144 | -21.73777 | 36033 ft | 433 kts | 270° |
| 2026-05-06 16:03 | 51.06406 | -21.83344 | 36026 ft | 432 kts | 270° |
| 2026-05-06 16:03 | 51.06660 | -21.92855 | 36026 ft | 430 kts | 270° |
| 2026-05-06 16:04 | 51.06905 | -22.02332 | 36030 ft | 429 kts | 270° |
| 2026-05-06 16:04 | 51.07141 | -22.11773 | 36029 ft | 429 kts | 270° |
| 2026-05-06 16:05 | 51.07370 | -22.21258 | 36030 ft | 429 kts | 270° |
| 2026-05-06 16:05 | 51.07594 | -22.30756 | 36030 ft | 429 kts | 270° |
| 2026-05-06 16:06 | 51.07809 | -22.40210 | 36043 ft | 426 kts | 270° |
| 2026-05-06 16:06 | 51.08014 | -22.49606 | 36023 ft | 425 kts | 270° |
| 2026-05-06 16:07 | 51.08211 | -22.59022 | 36022 ft | 425 kts | 270° |
| 2026-05-06 16:07 | 51.08399 | -22.68369 | 36021 ft | 425 kts | 270° |
| 2026-05-06 16:08 | 51.08580 | -22.77780 | 36018 ft | 425 kts | 270° |
| 2026-05-06 16:08 | 51.08753 | -22.87192 | 36019 ft | 425 kts | 270° |
| 2026-05-06 16:09 | 51.08920 | -22.96592 | 36018 ft | 425 kts | 270° |
| 2026-05-06 16:09 | 51.09079 | -23.05991 | 36017 ft | 425 kts | 270° |
| 2026-05-06 16:10 | 51.09231 | -23.15387 | 36018 ft | 425 kts | 270° |
| 2026-05-06 16:10 | 51.09374 | -23.24725 | 36018 ft | 425 kts | 270° |
| 2026-05-06 16:11 | 51.09511 | -23.34115 | 36016 ft | 425 kts | 269° |
| 2026-05-06 16:11 | 51.09639 | -23.43521 | 36011 ft | 424 kts | 270° |
| 2026-05-06 16:12 | 51.09761 | -23.52917 | 36012 ft | 424 kts | 270° |
| 2026-05-06 16:12 | 51.09876 | -23.62301 | 36010 ft | 424 kts | 270° |
| 2026-05-06 16:13 | 51.09982 | -23.71686 | 36008 ft | 424 kts | 270° |
| 2026-05-06 16:13 | 51.10081 | -23.81068 | 36001 ft | 424 kts | 270° |
| 2026-05-06 16:14 | 51.10173 | -23.90458 | 36008 ft | 424 kts | 270° |
| 2026-05-06 16:14 | 51.10256 | -23.99755 | 36001 ft | 422 kts | 269° |
| 2026-05-06 16:15 | 51.10332 | -24.09080 | 36003 ft | 421 kts | 269° |
| 2026-05-06 16:15 | 51.10401 | -24.18412 | 36001 ft | 421 kts | 269° |
| 2026-05-06 16:16 | 51.10461 | -24.27676 | 35995 ft | 421 kts | 269° |
| 2026-05-06 16:16 | 51.10515 | -24.36989 | 35995 ft | 421 kts | 269° |
| 2026-05-06 16:17 | 51.10561 | -24.46307 | 35990 ft | 420 kts | 269° |
| 2026-05-06 16:17 | 51.10601 | -24.55587 | 35991 ft | 419 kts | 269° |
| 2026-05-06 16:18 | 51.10632 | -24.64862 | 35975 ft | 420 kts | 269° |
| 2026-05-06 16:18 | 51.10656 | -24.74221 | 35990 ft | 426 kts | 269° |
| 2026-05-06 16:19 | 51.10673 | -24.83651 | 35984 ft | 426 kts | 269° |
| 2026-05-06 16:19 | 51.10682 | -24.93073 | 35987 ft | 426 kts | 269° |
| 2026-05-06 16:20 | 51.10684 | -25.02494 | 35985 ft | 426 kts | 269° |
| 2026-05-06 16:20 | 51.10678 | -25.11859 | 35979 ft | 426 kts | 269° |
| 2026-05-06 16:21 | 51.10665 | -25.21302 | 35979 ft | 426 kts | 269° |
| 2026-05-06 16:21 | 51.10644 | -25.30724 | 35976 ft | 426 kts | 269° |
| 2026-05-06 16:22 | 51.10616 | -25.40148 | 35973 ft | 426 kts | 268° |
| 2026-05-06 16:22 | 51.10580 | -25.49565 | 35967 ft | 424 kts | 268° |
| 2026-05-06 16:23 | 51.10537 | -25.58855 | 35969 ft | 421 kts | 268° |
| 2026-05-06 16:23 | 51.10486 | -25.68166 | 35963 ft | 420 kts | 268° |
| 2026-05-06 16:24 | 51.10428 | -25.77481 | 35970 ft | 421 kts | 268° |
| 2026-05-06 16:24 | 51.10362 | -25.86845 | 35962 ft | 424 kts | 268° |
| 2026-05-06 16:25 | 51.10289 | -25.96190 | 35962 ft | 425 kts | 268° |
| 2026-05-06 16:25 | 51.10209 | -26.05581 | 35953 ft | 422 kts | 268° |
| 2026-05-06 16:26 | 51.10122 | -26.14905 | 35956 ft | 421 kts | 268° |
| 2026-05-06 16:26 | 51.10026 | -26.24231 | 35948 ft | 421 kts | 268° |
| 2026-05-06 16:27 | 51.09924 | -26.33496 | 35947 ft | 421 kts | 267° |
| 2026-05-06 16:27 | 51.09814 | -26.42816 | 35939 ft | 421 kts | 267° |
| 2026-05-06 16:28 | 51.09697 | -26.52145 | 35939 ft | 421 kts | 267° |
| 2026-05-06 16:28 | 51.09573 | -26.61469 | 35947 ft | 421 kts | 267° |
| 2026-05-06 16:29 | 51.09440 | -26.70781 | 35942 ft | 421 kts | 267° |
| 2026-05-06 16:29 | 51.09301 | -26.80094 | 35929 ft | 421 kts | 267° |
| 2026-05-06 16:30 | 51.09179 | -26.87830 | 35948 ft | 421 kts | 267° |
| 2026-05-06 16:30 | 51.08999 | -26.98690 | 35930 ft | 424 kts | 267° |
| 2026-05-06 16:31 | 51.08837 | -27.08077 | 35929 ft | 425 kts | 267° |
| 2026-05-06 16:31 | 51.08666 | -27.17503 | 35921 ft | 425 kts | 266° |
| 2026-05-06 16:32 | 51.08488 | -27.26910 | 35921 ft | 425 kts | 266° |
| 2026-05-06 16:32 | 51.08303 | -27.36250 | 35919 ft | 425 kts | 266° |
| 2026-05-06 16:33 | 51.08110 | -27.45657 | 35920 ft | 425 kts | 266° |
| 2026-05-06 16:34 | 51.07805 | -27.59788 | 35917 ft | 426 kts | 266° |
| 2026-05-06 16:34 | 51.07593 | -27.69163 | 35917 ft | 427 kts | 266° |
| 2026-05-06 16:35 | 51.07373 | -27.78606 | 35915 ft | 427 kts | 266° |
| 2026-05-06 16:35 | 51.07146 | -27.88055 | 35914 ft | 427 kts | 266° |
| 2026-05-06 16:36 | 51.06910 | -27.97512 | 35916 ft | 427 kts | 266° |
| 2026-05-06 16:36 | 51.06666 | -28.06968 | 35918 ft | 429 kts | 266° |
| 2026-05-06 16:37 | 51.06414 | -28.16391 | 35912 ft | 430 kts | 266° |
| 2026-05-06 16:37 | 51.06154 | -28.25887 | 35913 ft | 430 kts | 266° |
| 2026-05-06 16:38 | 51.05886 | -28.35397 | 35920 ft | 430 kts | 266° |
| 2026-05-06 16:38 | 51.05610 | -28.44896 | 35919 ft | 430 kts | 266° |
| 2026-05-06 16:39 | 51.05326 | -28.54404 | 35920 ft | 430 kts | 266° |
| 2026-05-06 16:39 | 51.05036 | -28.63842 | 35922 ft | 431 kts | 266° |
| 2026-05-06 16:40 | 51.04737 | -28.73348 | 35921 ft | 431 kts | 266° |
| 2026-05-06 16:40 | 51.04429 | -28.82858 | 35926 ft | 431 kts | 266° |
| 2026-05-06 16:41 | 51.04115 | -28.92367 | 35924 ft | 431 kts | 266° |
| 2026-05-06 16:41 | 51.03847 | -29.00268 | 35928 ft | 431 kts | 266° |
| 2026-05-06 16:42 | 51.03518 | -29.09774 | 35931 ft | 431 kts | 266° |
| 2026-05-06 16:42 | 51.03181 | -29.19282 | 35932 ft | 430 kts | 266° |
| 2026-05-06 16:43 | 51.02838 | -29.28748 | 35940 ft | 428 kts | 266° |
| 2026-05-06 16:43 | 51.02487 | -29.38202 | 35947 ft | 429 kts | 266° |
| 2026-05-06 16:44 | 51.02131 | -29.47603 | 35947 ft | 428 kts | 266° |
| 2026-05-06 16:44 | 51.01766 | -29.57042 | 35951 ft | 429 kts | 266° |
| 2026-05-06 16:45 | 51.01392 | -29.66498 | 35955 ft | 428 kts | 266° |
| 2026-05-06 16:45 | 51.01009 | -29.75964 | 35958 ft | 431 kts | 266° |
| 2026-05-06 16:46 | 51.00620 | -29.85459 | 35956 ft | 430 kts | 266° |
| 2026-05-06 16:46 | 51.00225 | -29.94878 | 35957 ft | 431 kts | 266° |
| 2026-05-06 16:47 | 50.99915 | -30.04376 | 35967 ft | 429 kts | 269° |
| 2026-05-06 16:47 | 50.99839 | -30.13860 | 35973 ft | 430 kts | 269° |
| 2026-05-06 16:48 | 50.99800 | -30.23381 | 35971 ft | 431 kts | 269° |
| 2026-05-06 16:48 | 50.99733 | -30.32873 | 35978 ft | 430 kts | 269° |
| 2026-05-06 16:49 | 50.99640 | -30.42404 | 35974 ft | 432 kts | 269° |
| 2026-05-06 16:49 | 50.99535 | -30.51856 | 35992 ft | 430 kts | 269° |
| 2026-05-06 16:50 | 50.99421 | -30.61389 | 35986 ft | 432 kts | 269° |
| 2026-05-06 16:50 | 50.99301 | -30.70902 | 35987 ft | 430 kts | 269° |
| 2026-05-06 16:51 | 50.99175 | -30.80349 | 35998 ft | 432 kts | 269° |
| 2026-05-06 16:51 | 50.99040 | -30.89881 | 35992 ft | 431 kts | 269° |
| 2026-05-06 16:52 | 50.98897 | -30.99400 | 36005 ft | 432 kts | 269° |
| 2026-05-06 16:52 | 50.98746 | -31.08952 | 36001 ft | 432 kts | 269° |
| 2026-05-06 16:53 | 50.98587 | -31.18468 | 36011 ft | 432 kts | 269° |
| 2026-05-06 16:53 | 50.98420 | -31.28023 | 36010 ft | 433 kts | 269° |
| 2026-05-06 16:54 | 50.98247 | -31.37502 | 36018 ft | 433 kts | 269° |
| 2026-05-06 16:54 | 50.98065 | -31.47060 | 36021 ft | 433 kts | 269° |
| 2026-05-06 16:55 | 50.97875 | -31.56602 | 36026 ft | 432 kts | 269° |
| 2026-05-06 16:55 | 50.97677 | -31.66154 | 36026 ft | 433 kts | 269° |
| 2026-05-06 16:56 | 50.97471 | -31.75706 | 36026 ft | 433 kts | 269° |
| 2026-05-06 16:56 | 50.97258 | -31.85202 | 36030 ft | 434 kts | 269° |
| 2026-05-06 16:57 | 50.97037 | -31.94759 | 36035 ft | 433 kts | 269° |
| 2026-05-06 16:57 | 50.96808 | -32.04322 | 36039 ft | 434 kts | 269° |
| 2026-05-06 16:58 | 50.96571 | -32.13880 | 36040 ft | 433 kts | 269° |
| 2026-05-06 16:58 | 50.96325 | -32.23446 | 36046 ft | 434 kts | 269° |
| 2026-05-06 16:59 | 50.96074 | -32.32955 | 36045 ft | 434 kts | 269° |
| 2026-05-06 16:59 | 50.95813 | -32.42537 | 36051 ft | 435 kts | 269° |
| 2026-05-06 17:00 | 50.95543 | -32.52137 | 36051 ft | 435 kts | 269° |
| 2026-05-06 17:00 | 50.95266 | -32.61735 | 36053 ft | 435 kts | 269° |
| 2026-05-06 17:01 | 50.94981 | -32.71317 | 36061 ft | 435 kts | 269° |
| 2026-05-06 17:01 | 50.94690 | -32.80836 | 36059 ft | 435 kts | 268° |
| 2026-05-06 17:02 | 50.94389 | -32.90417 | 36060 ft | 435 kts | 269° |
| 2026-05-06 17:02 | 50.94081 | -32.99991 | 36061 ft | 434 kts | 269° |
| 2026-05-06 17:03 | 50.93766 | -33.09543 | 36074 ft | 434 kts | 269° |
| 2026-05-06 17:03 | 50.93442 | -33.19107 | 36069 ft | 434 kts | 269° |
| 2026-05-06 17:04 | 50.93113 | -33.28612 | 36069 ft | 434 kts | 269° |
| 2026-05-06 17:04 | 50.92774 | -33.38168 | 36055 ft | 434 kts | 269° |
| 2026-05-06 17:05 | 50.92427 | -33.47710 | 36070 ft | 433 kts | 269° |
| 2026-05-06 17:05 | 50.92073 | -33.57254 | 36079 ft | 433 kts | 269° |
| 2026-05-06 17:06 | 50.91712 | -33.66784 | 36071 ft | 433 kts | 269° |
| 2026-05-06 17:06 | 50.91345 | -33.76246 | 36081 ft | 433 kts | 269° |
| 2026-05-06 17:07 | 50.90969 | -33.85765 | 36081 ft | 433 kts | 268° |
| 2026-05-06 17:07 | 50.90584 | -33.95281 | 36076 ft | 432 kts | 269° |
| 2026-05-06 17:08 | 50.90192 | -34.04784 | 36080 ft | 431 kts | 269° |
| 2026-05-06 17:08 | 50.89793 | -34.14273 | 36083 ft | 431 kts | 269° |
| 2026-05-06 17:09 | 50.89390 | -34.23696 | 36084 ft | 431 kts | 269° |
| 2026-05-06 17:09 | 50.88976 | -34.33181 | 36083 ft | 431 kts | 268° |
| 2026-05-06 17:10 | 50.88555 | -34.42655 | 36086 ft | 431 kts | 268° |
| 2026-05-06 17:10 | 50.88125 | -34.52125 | 36085 ft | 430 kts | 269° |
| 2026-05-06 17:11 | 50.87690 | -34.61568 | 36090 ft | 430 kts | 269° |
| 2026-05-06 17:11 | 50.87251 | -34.70936 | 36091 ft | 429 kts | 268° |
| 2026-05-06 17:12 | 50.86801 | -34.80365 | 36092 ft | 429 kts | 268° |
| 2026-05-06 17:12 | 50.86342 | -34.89814 | 36092 ft | 430 kts | 268° |
| 2026-05-06 17:13 | 50.85877 | -34.99246 | 36099 ft | 430 kts | 268° |
| 2026-05-06 17:13 | 50.85403 | -35.08664 | 36089 ft | 428 kts | 269° |
| 2026-05-06 17:14 | 50.84925 | -35.18046 | 36102 ft | 428 kts | 269° |
| 2026-05-06 17:14 | 50.84439 | -35.27434 | 36094 ft | 428 kts | 269° |
| 2026-05-06 17:15 | 50.83949 | -35.36757 | 36100 ft | 428 kts | 268° |
| 2026-05-06 17:15 | 50.83447 | -35.46137 | 36095 ft | 428 kts | 268° |
| 2026-05-06 17:16 | 50.82938 | -35.55527 | 36102 ft | 428 kts | 268° |
| 2026-05-06 17:16 | 50.82422 | -35.64907 | 36095 ft | 428 kts | 268° |
| 2026-05-06 17:17 | 50.81898 | -35.74282 | 36103 ft | 428 kts | 268° |
| 2026-05-06 17:17 | 50.81367 | -35.83649 | 36111 ft | 428 kts | 268° |
| 2026-05-06 17:18 | 50.80832 | -35.92963 | 36111 ft | 428 kts | 268° |
| 2026-05-06 17:18 | 50.80285 | -36.02339 | 36108 ft | 428 kts | 268° |
| 2026-05-06 17:19 | 50.79730 | -36.11708 | 36109 ft | 427 kts | 269° |
| 2026-05-06 17:19 | 50.79174 | -36.20972 | 36113 ft | 425 kts | 269° |
| 2026-05-06 17:20 | 50.78609 | -36.30284 | 36116 ft | 425 kts | 269° |
| 2026-05-06 17:20 | 50.78038 | -36.39583 | 36116 ft | 425 kts | 269° |
| 2026-05-06 17:21 | 50.77458 | -36.48881 | 36118 ft | 425 kts | 268° |
| 2026-05-06 17:21 | 50.76870 | -36.58185 | 36118 ft | 425 kts | 268° |
| 2026-05-06 17:22 | 50.76279 | -36.67411 | 36118 ft | 423 kts | 269° |
| 2026-05-06 17:22 | 50.75679 | -36.76656 | 36124 ft | 423 kts | 269° |
| 2026-05-06 17:23 | 50.75074 | -36.85891 | 36124 ft | 423 kts | 269° |
| 2026-05-06 17:23 | 50.74461 | -36.95132 | 36126 ft | 423 kts | 269° |
| 2026-05-06 17:24 | 50.73845 | -37.04302 | 36126 ft | 423 kts | 269° |
| 2026-05-06 17:24 | 50.73218 | -37.13524 | 36105 ft | 422 kts | 269° |
| 2026-05-06 17:25 | 50.72585 | -37.22699 | 36120 ft | 419 kts | 269° |
| 2026-05-06 17:25 | 50.71948 | -37.31851 | 36125 ft | 419 kts | 269° |
| 2026-05-06 17:26 | 50.71305 | -37.40987 | 36133 ft | 419 kts | 269° |
| 2026-05-06 17:26 | 50.70655 | -37.50125 | 36126 ft | 419 kts | 269° |
| 2026-05-06 17:27 | 50.69998 | -37.59253 | 36137 ft | 419 kts | 269° |
| 2026-05-06 17:27 | 50.69337 | -37.68315 | 36127 ft | 418 kts | 270° |
| 2026-05-06 17:28 | 50.68668 | -37.77387 | 36136 ft | 415 kts | 270° |
| 2026-05-06 17:28 | 50.67996 | -37.86420 | 36134 ft | 415 kts | 270° |
| 2026-05-06 17:29 | 50.67317 | -37.95453 | 36136 ft | 414 kts | 270° |
| 2026-05-06 17:29 | 50.66632 | -38.04475 | 36141 ft | 414 kts | 270° |
| 2026-05-06 17:30 | 50.65939 | -38.13508 | 36143 ft | 414 kts | 270° |
| 2026-05-06 17:30 | 50.65238 | -38.22520 | 36142 ft | 413 kts | 270° |
| 2026-05-06 17:31 | 50.64540 | -38.31411 | 36144 ft | 411 kts | 270° |
| 2026-05-06 17:31 | 50.63833 | -38.40352 | 36142 ft | 411 kts | 270° |
| 2026-05-06 17:32 | 50.63119 | -38.49295 | 36143 ft | 411 kts | 270° |
| 2026-05-06 17:32 | 50.62397 | -38.58247 | 36143 ft | 411 kts | 270° |
| 2026-05-06 17:33 | 50.61674 | -38.67120 | 36146 ft | 411 kts | 270° |
| 2026-05-06 17:33 | 50.60937 | -38.76052 | 36143 ft | 410 kts | 271° |
| 2026-05-06 17:34 | 50.60198 | -38.84934 | 36148 ft | 408 kts | 271° |
| 2026-05-06 17:34 | 50.59583 | -38.92281 | 36149 ft | 407 kts | 271° |
| 2026-05-06 17:35 | 50.58711 | -39.02609 | 36151 ft | 407 kts | 271° |
| 2026-05-06 17:35 | 50.57958 | -39.11428 | 36151 ft | 407 kts | 271° |
| 2026-05-06 17:36 | 50.56820 | -39.24601 | 36148 ft | 406 kts | 271° |
| 2026-05-06 17:36 | 50.56049 | -39.33378 | 36154 ft | 403 kts | 271° |
| 2026-05-06 17:37 | 50.55409 | -39.40637 | 36164 ft | 403 kts | 271° |
| 2026-05-06 17:37 | 50.54502 | -39.50847 | 36157 ft | 403 kts | 271° |
| 2026-05-06 17:38 | 50.53853 | -39.58100 | 36165 ft | 403 kts | 271° |
| 2026-05-06 17:38 | 50.53064 | -39.66826 | 36166 ft | 403 kts | 271° |
| 2026-05-06 17:39 | 50.52269 | -39.75545 | 36112 ft | 403 kts | 271° |
| 2026-05-06 17:39 | 50.51473 | -39.84224 | 36161 ft | 405 kts | 271° |
| 2026-05-06 17:40 | 50.50661 | -39.92992 | 36163 ft | 406 kts | 271° |
| 2026-05-06 17:40 | 50.49595 | -40.01752 | 36169 ft | 413 kts | 264° |
| 2026-05-06 17:41 | 50.47989 | -40.10456 | 36169 ft | 416 kts | 263° |
| 2026-05-06 17:41 | 50.46267 | -40.19134 | 36168 ft | 417 kts | 262° |
| 2026-05-06 17:42 | 50.44525 | -40.27807 | 36163 ft | 417 kts | 262° |
| 2026-05-06 17:42 | 50.42785 | -40.36505 | 36170 ft | 418 kts | 262° |
| 2026-05-06 17:43 | 50.41053 | -40.45157 | 36173 ft | 418 kts | 262° |
| 2026-05-06 17:43 | 50.39306 | -40.53859 | 36173 ft | 419 kts | 262° |
| 2026-05-06 17:44 | 50.37551 | -40.62557 | 36173 ft | 419 kts | 262° |
| 2026-05-06 17:44 | 50.35788 | -40.71255 | 36173 ft | 419 kts | 262° |
| 2026-05-06 17:45 | 50.34017 | -40.79953 | 36176 ft | 419 kts | 262° |
| 2026-05-06 17:45 | 50.32239 | -40.88649 | 36176 ft | 419 kts | 262° |
| 2026-05-06 17:46 | 50.30455 | -40.97334 | 36181 ft | 419 kts | 262° |
| 2026-05-06 17:46 | 50.28676 | -41.05957 | 36182 ft | 419 kts | 261° |
| 2026-05-06 17:47 | 50.26880 | -41.14624 | 36150 ft | 419 kts | 261° |
| 2026-05-06 17:47 | 50.25079 | -41.23276 | 36181 ft | 417 kts | 261° |
| 2026-05-06 17:48 | 50.23275 | -41.31906 | 36181 ft | 417 kts | 261° |
| 2026-05-06 17:48 | 50.21477 | -41.40477 | 36181 ft | 417 kts | 261° |
| 2026-05-06 17:49 | 50.19661 | -41.49096 | 36181 ft | 417 kts | 261° |
| 2026-05-06 17:49 | 50.17838 | -41.57705 | 36150 ft | 418 kts | 261° |
| 2026-05-06 17:50 | 50.16023 | -41.66239 | 36181 ft | 416 kts | 261° |
| 2026-05-06 17:50 | 50.14198 | -41.74786 | 36178 ft | 416 kts | 261° |
| 2026-05-06 17:51 | 50.12365 | -41.83339 | 36185 ft | 416 kts | 261° |
| 2026-05-06 17:51 | 50.10528 | -41.91878 | 36177 ft | 416 kts | 260° |
| 2026-05-06 17:52 | 50.08682 | -42.00416 | 36182 ft | 416 kts | 260° |
| 2026-05-06 17:52 | 50.06845 | -42.08880 | 36182 ft | 414 kts | 260° |
| 2026-05-06 17:53 | 50.04998 | -42.17349 | 36181 ft | 413 kts | 260° |
| 2026-05-06 17:53 | 50.03143 | -42.25824 | 36181 ft | 413 kts | 260° |
| 2026-05-06 17:54 | 50.01284 | -42.34288 | 36174 ft | 413 kts | 259° |
| 2026-05-06 17:54 | 49.99423 | -42.42717 | 36184 ft | 412 kts | 259° |
| 2026-05-06 17:55 | 49.97573 | -42.51068 | 36181 ft | 409 kts | 259° |
| 2026-05-06 17:55 | 49.95719 | -42.59395 | 36181 ft | 407 kts | 259° |
| 2026-05-06 17:56 | 49.93863 | -42.67709 | 36181 ft | 407 kts | 259° |
| 2026-05-06 17:56 | 49.92003 | -42.76013 | 36184 ft | 407 kts | 259° |
| 2026-05-06 17:57 | 49.90135 | -42.84316 | 36184 ft | 407 kts | 259° |
| 2026-05-06 17:57 | 49.88259 | -42.92613 | 36179 ft | 407 kts | 258° |
| 2026-05-06 17:58 | 49.86392 | -43.00847 | 36185 ft | 408 kts | 258° |
| 2026-05-06 17:58 | 49.84503 | -43.09141 | 36179 ft | 408 kts | 258° |
| 2026-05-06 17:59 | 49.82606 | -43.17435 | 36176 ft | 408 kts | 258° |
| 2026-05-06 17:59 | 49.80707 | -43.25708 | 36190 ft | 408 kts | 258° |
| 2026-05-06 18:00 | 49.78801 | -43.33984 | 36162 ft | 408 kts | 257° |
| 2026-05-06 18:00 | 49.76886 | -43.42263 | 36192 ft | 408 kts | 257° |
| 2026-05-06 18:01 | 49.74979 | -43.50474 | 36186 ft | 408 kts | 257° |
| 2026-05-06 18:01 | 49.73050 | -43.58747 | 36186 ft | 409 kts | 257° |
| 2026-05-06 18:02 | 49.71118 | -43.67005 | 36179 ft | 409 kts | 257° |
| 2026-05-06 18:02 | 49.69176 | -43.75273 | 36181 ft | 409 kts | 257° |
| 2026-05-06 18:03 | 49.67242 | -43.83479 | 36184 ft | 409 kts | 256° |
| 2026-05-06 18:03 | 49.65287 | -43.91734 | 36184 ft | 410 kts | 256° |
| 2026-05-06 18:04 | 49.63324 | -43.99994 | 36186 ft | 410 kts | 256° |
| 2026-05-06 18:04 | 49.61353 | -44.08257 | 36186 ft | 410 kts | 256° |
| 2026-05-06 18:05 | 49.59391 | -44.16452 | 36186 ft | 410 kts | 256° |
| 2026-05-06 18:05 | 49.57409 | -44.24702 | 36186 ft | 410 kts | 256° |
| 2026-05-06 18:06 | 49.55419 | -44.32952 | 36189 ft | 411 kts | 255° |
| 2026-05-06 18:06 | 49.53424 | -44.41190 | 36190 ft | 411 kts | 255° |
| 2026-05-06 18:07 | 49.51421 | -44.49430 | 36192 ft | 411 kts | 255° |
| 2026-05-06 18:07 | 49.49414 | -44.57659 | 36195 ft | 411 kts | 255° |
| 2026-05-06 18:08 | 49.47401 | -44.65879 | 36192 ft | 411 kts | 255° |
| 2026-05-06 18:08 | 49.45393 | -44.74049 | 36190 ft | 411 kts | 255° |
| 2026-05-06 18:09 | 49.43367 | -44.82264 | 36188 ft | 411 kts | 255° |
| 2026-05-06 18:09 | 49.41335 | -44.90472 | 36189 ft | 411 kts | 255° |
| 2026-05-06 18:10 | 49.39296 | -44.98673 | 36195 ft | 411 kts | 255° |
| 2026-05-06 18:10 | 49.37254 | -45.06861 | 36195 ft | 411 kts | 255° |
| 2026-05-06 18:11 | 49.35216 | -45.15003 | 36194 ft | 411 kts | 255° |
| 2026-05-06 18:11 | 49.33161 | -45.23186 | 36192 ft | 411 kts | 255° |
| 2026-05-06 18:12 | 49.31100 | -45.31357 | 36191 ft | 411 kts | 254° |
| 2026-05-06 18:12 | 49.29034 | -45.39519 | 36192 ft | 411 kts | 254° |
| 2026-05-06 18:13 | 49.26963 | -45.47677 | 36185 ft | 410 kts | 254° |
| 2026-05-06 18:13 | 49.24889 | -45.55812 | 36199 ft | 410 kts | 254° |
| 2026-05-06 18:14 | 49.22825 | -45.63880 | 36201 ft | 410 kts | 254° |
| 2026-05-06 18:14 | 49.20743 | -45.71990 | 36201 ft | 410 kts | 254° |
| 2026-05-06 18:15 | 49.18655 | -45.80094 | 36195 ft | 410 kts | 253° |
| 2026-05-06 18:15 | 49.16562 | -45.88191 | 36193 ft | 409 kts | 253° |
| 2026-05-06 18:16 | 49.14467 | -45.96262 | 36206 ft | 408 kts | 253° |
| 2026-05-06 18:16 | 49.12372 | -46.04309 | 36204 ft | 408 kts | 253° |
| 2026-05-06 18:17 | 49.10283 | -46.12303 | 36205 ft | 408 kts | 253° |
| 2026-05-06 18:17 | 49.08179 | -46.20329 | 36202 ft | 407 kts | 252° |
| 2026-05-06 18:18 | 49.06073 | -46.28332 | 36191 ft | 406 kts | 252° |
| 2026-05-06 18:18 | 49.03965 | -46.36313 | 36209 ft | 405 kts | 252° |
| 2026-05-06 18:19 | 49.01867 | -46.44231 | 36210 ft | 405 kts | 252° |
| 2026-05-06 18:19 | 48.99751 | -46.52192 | 36212 ft | 405 kts | 252° |
| 2026-05-06 18:20 | 48.97629 | -46.60146 | 36215 ft | 405 kts | 252° |
| 2026-05-06 18:20 | 48.95502 | -46.68090 | 36195 ft | 405 kts | 251° |
| 2026-05-06 18:21 | 48.93370 | -46.76027 | 36214 ft | 404 kts | 251° |
| 2026-05-06 18:21 | 48.91249 | -46.83897 | 36214 ft | 404 kts | 251° |
| 2026-05-06 18:22 | 48.89110 | -46.91806 | 36214 ft | 404 kts | 251° |
| 2026-05-06 18:22 | 48.86964 | -46.99716 | 36214 ft | 404 kts | 251° |
| 2026-05-06 18:23 | 48.84813 | -47.07614 | 36214 ft | 404 kts | 251° |
| 2026-05-06 18:23 | 48.82658 | -47.15502 | 36216 ft | 404 kts | 251° |
| 2026-05-06 18:24 | 48.80503 | -47.23365 | 36210 ft | 403 kts | 251° |
| 2026-05-06 18:24 | 48.78355 | -47.31173 | 36216 ft | 404 kts | 251° |
| 2026-05-06 18:25 | 48.76186 | -47.39035 | 36214 ft | 404 kts | 250° |
| 2026-05-06 18:25 | 48.74013 | -47.46884 | 36222 ft | 403 kts | 250° |
| 2026-05-06 18:26 | 48.71839 | -47.54712 | 36215 ft | 404 kts | 250° |
| 2026-05-06 18:26 | 48.69671 | -47.62493 | 36222 ft | 404 kts | 250° |
| 2026-05-06 18:27 | 48.67480 | -47.70326 | 36220 ft | 404 kts | 249° |
| 2026-05-06 18:27 | 48.65285 | -47.78151 | 36226 ft | 404 kts | 249° |
| 2026-05-06 18:28 | 48.63084 | -47.85970 | 36222 ft | 404 kts | 249° |
| 2026-05-06 18:28 | 48.60876 | -47.93792 | 36231 ft | 405 kts | 249° |
| 2026-05-06 18:29 | 48.58656 | -48.01628 | 36221 ft | 406 kts | 249° |
| 2026-05-06 18:29 | 48.56421 | -48.09490 | 36228 ft | 406 kts | 249° |
| 2026-05-06 18:30 | 48.54189 | -48.17318 | 36227 ft | 406 kts | 249° |
| 2026-05-06 18:30 | 48.51961 | -48.25105 | 36234 ft | 406 kts | 249° |
| 2026-05-06 18:31 | 48.49714 | -48.32935 | 36225 ft | 407 kts | 248° |
| 2026-05-06 18:31 | 48.47452 | -48.40792 | 36231 ft | 408 kts | 248° |
| 2026-05-06 18:32 | 48.45200 | -48.48587 | 36228 ft | 408 kts | 248° |
| 2026-05-06 18:32 | 48.42927 | -48.56428 | 36230 ft | 408 kts | 248° |
| 2026-05-06 18:33 | 48.40650 | -48.64259 | 36223 ft | 408 kts | 248° |
| 2026-05-06 18:33 | 48.38365 | -48.72095 | 36227 ft | 409 kts | 247° |
| 2026-05-06 18:34 | 48.36458 | -48.78614 | 36230 ft | 410 kts | 247° |
| 2026-05-06 18:34 | 48.33768 | -48.87777 | 36229 ft | 410 kts | 247° |
| 2026-05-06 18:35 | 48.31476 | -48.95557 | 36227 ft | 410 kts | 247° |
| 2026-05-06 18:35 | 48.29554 | -49.02066 | 36232 ft | 410 kts | 247° |
| 2026-05-06 18:36 | 48.27235 | -49.09891 | 36227 ft | 410 kts | 247° |
| 2026-05-06 18:36 | 48.24908 | -49.17720 | 36230 ft | 410 kts | 246° |
| 2026-05-06 18:37 | 48.22580 | -49.25531 | 36233 ft | 410 kts | 246° |
| 2026-05-06 18:37 | 48.20246 | -49.33334 | 36235 ft | 410 kts | 246° |
| 2026-05-06 18:38 | 48.17923 | -49.41074 | 36238 ft | 410 kts | 246° |
| 2026-05-06 18:38 | 48.15579 | -49.48863 | 36238 ft | 411 kts | 246° |
| 2026-05-06 18:39 | 48.13224 | -49.56663 | 36233 ft | 411 kts | 246° |
| 2026-05-06 18:40 | 48.09680 | -49.68353 | 36238 ft | 411 kts | 246° |
| 2026-05-06 18:40 | 48.07309 | -49.76143 | 36240 ft | 411 kts | 246° |
| 2026-05-06 18:41 | 48.04948 | -49.83877 | 36238 ft | 411 kts | 245° |
| 2026-05-06 18:41 | 48.02562 | -49.91670 | 36244 ft | 412 kts | 245° |
| 2026-05-06 18:42 | 48.00206 | -49.99487 | 36241 ft | 412 kts | 249° |
| 2026-05-06 18:42 | 47.98194 | -50.07498 | 36241 ft | 412 kts | 250° |
| 2026-05-06 18:43 | 47.96266 | -50.15502 | 36240 ft | 412 kts | 250° |
| 2026-05-06 18:43 | 47.94334 | -50.23565 | 36243 ft | 413 kts | 250° |
| 2026-05-06 18:44 | 47.92390 | -50.31628 | 36314 ft | 414 kts | 250° |
| 2026-05-06 18:44 | 47.91412 | -50.35662 | 36486 ft | 413 kts | 250° |
| 2026-05-06 18:44 | 47.90435 | -50.39683 | 36728 ft | 411 kts | 250° |
| 2026-05-06 18:44 | 47.89460 | -50.43687 | 36894 ft | 411 kts | 250° |
| 2026-05-06 18:45 | 47.88481 | -50.47697 | 37041 ft | 411 kts | 250° |
| 2026-05-06 18:45 | 47.87505 | -50.51689 | 37224 ft | 410 kts | 250° |
| 2026-05-06 18:45 | 47.86527 | -50.55683 | 37375 ft | 410 kts | 250° |
| 2026-05-06 18:45 | 47.85562 | -50.59618 | 37533 ft | 410 kts | 250° |
| 2026-05-06 18:46 | 47.84582 | -50.63603 | 37693 ft | 409 kts | 250° |
| 2026-05-06 18:46 | 47.83605 | -50.67574 | 37825 ft | 409 kts | 250° |
| 2026-05-06 18:46 | 47.82625 | -50.71546 | 37958 ft | 409 kts | 250° |
| 2026-05-06 18:46 | 47.81645 | -50.75513 | 38101 ft | 408 kts | 250° |
| 2026-05-06 18:47 | 47.80663 | -50.79481 | 38232 ft | 408 kts | 250° |
| 2026-05-06 18:47 | 47.78690 | -50.87433 | 38246 ft | 408 kts | 250° |
| 2026-05-06 18:48 | 47.76721 | -50.95342 | 38237 ft | 408 kts | 250° |
| 2026-05-06 18:48 | 47.74759 | -51.03191 | 38243 ft | 408 kts | 250° |
| 2026-05-06 18:49 | 47.72779 | -51.11087 | 38247 ft | 408 kts | 250° |
| 2026-05-06 18:49 | 47.70790 | -51.18991 | 38241 ft | 408 kts | 250° |
| 2026-05-06 18:50 | 47.68796 | -51.26890 | 38246 ft | 408 kts | 250° |
| 2026-05-06 18:50 | 47.66810 | -51.34729 | 38250 ft | 408 kts | 250° |
| 2026-05-06 18:51 | 47.64808 | -51.42601 | 38256 ft | 408 kts | 250° |
| 2026-05-06 18:51 | 47.62797 | -51.50481 | 38236 ft | 408 kts | 250° |
| 2026-05-06 18:52 | 47.60785 | -51.58341 | 38244 ft | 407 kts | 250° |
| 2026-05-06 18:52 | 47.58781 | -51.66139 | 38258 ft | 407 kts | 250° |
| 2026-05-06 18:53 | 47.56760 | -51.73981 | 38256 ft | 407 kts | 250° |
| 2026-05-06 18:53 | 47.54732 | -51.81820 | 38252 ft | 407 kts | 250° |
| 2026-05-06 18:54 | 47.52699 | -51.89652 | 38249 ft | 407 kts | 250° |
| 2026-05-06 18:54 | 47.50677 | -51.97418 | 38245 ft | 406 kts | 251° |
| 2026-05-06 18:55 | 47.49020 | -52.05402 | 38252 ft | 405 kts | 255° |
| 2026-05-06 18:55 | 47.47537 | -52.13398 | 38251 ft | 405 kts | 256° |
| 2026-05-06 18:56 | 47.46074 | -52.21444 | 38248 ft | 405 kts | 256° |
| 2026-05-06 18:56 | 47.44602 | -52.29490 | 38244 ft | 405 kts | 256° |
| 2026-05-06 18:57 | 47.43118 | -52.37529 | 38249 ft | 405 kts | 256° |
| 2026-05-06 18:57 | 47.41639 | -52.45494 | 38258 ft | 404 kts | 256° |
| 2026-05-06 18:58 | 47.40143 | -52.53510 | 38234 ft | 405 kts | 256° |
| 2026-05-06 18:58 | 47.38642 | -52.61517 | 38232 ft | 405 kts | 256° |
| 2026-05-06 18:59 | 47.37135 | -52.69527 | 38238 ft | 405 kts | 256° |
| 2026-05-06 18:59 | 47.35632 | -52.77479 | 38231 ft | 405 kts | 256° |
| 2026-05-06 19:00 | 47.34114 | -52.85476 | 38246 ft | 405 kts | 256° |
| 2026-05-06 19:00 | 47.32589 | -52.93478 | 38248 ft | 405 kts | 256° |
| 2026-05-06 19:01 | 47.31062 | -53.01455 | 38264 ft | 405 kts | 256° |
| 2026-05-06 19:01 | 47.29527 | -53.09442 | 38254 ft | 405 kts | 256° |
| 2026-05-06 19:02 | 47.27995 | -53.17380 | 38268 ft | 405 kts | 256° |
| 2026-05-06 19:02 | 47.26449 | -53.25360 | 38267 ft | 404 kts | 255° |
| 2026-05-06 19:03 | 47.24898 | -53.33324 | 38274 ft | 404 kts | 255° |
| 2026-05-06 19:03 | 47.23343 | -53.41281 | 38273 ft | 404 kts | 255° |
| 2026-05-06 19:04 | 47.21783 | -53.49232 | 38261 ft | 404 kts | 255° |
| 2026-05-06 19:04 | 47.20227 | -53.57125 | 38266 ft | 404 kts | 255° |
| 2026-05-06 19:05 | 47.18656 | -53.65068 | 38272 ft | 404 kts | 255° |
| 2026-05-06 19:05 | 47.17079 | -53.73006 | 38270 ft | 405 kts | 255° |
| 2026-05-06 19:06 | 47.15491 | -53.80967 | 38275 ft | 406 kts | 255° |
| 2026-05-06 19:06 | 47.13899 | -53.88916 | 38276 ft | 406 kts | 255° |
| 2026-05-06 19:07 | 47.12301 | -53.96863 | 38266 ft | 406 kts | 255° |
| 2026-05-06 19:07 | 47.10697 | -54.04808 | 38269 ft | 406 kts | 255° |
| 2026-05-06 19:08 | 47.09095 | -54.12705 | 38261 ft | 406 kts | 255° |
| 2026-05-06 19:08 | 47.07479 | -54.20646 | 38256 ft | 407 kts | 254° |
| 2026-05-06 19:09 | 47.05853 | -54.28602 | 38251 ft | 407 kts | 254° |
| 2026-05-06 19:09 | 47.04233 | -54.36501 | 38250 ft | 407 kts | 254° |
| 2026-05-06 19:10 | 47.02596 | -54.44449 | 38258 ft | 407 kts | 254° |
| 2026-05-06 19:10 | 47.00953 | -54.52394 | 38252 ft | 407 kts | 254° |
| 2026-05-06 19:11 | 46.99305 | -54.60329 | 38240 ft | 407 kts | 254° |
| 2026-05-06 19:11 | 46.97650 | -54.68269 | 38245 ft | 408 kts | 254° |
| 2026-05-06 19:12 | 46.95988 | -54.76214 | 38254 ft | 408 kts | 254° |
| 2026-05-06 19:12 | 46.94331 | -54.84099 | 38248 ft | 408 kts | 254° |
| 2026-05-06 19:13 | 46.92656 | -54.92042 | 38249 ft | 408 kts | 254° |
| 2026-05-06 19:13 | 46.90977 | -54.99974 | 38258 ft | 408 kts | 254° |
| 2026-05-06 19:14 | 46.89292 | -55.07900 | 38254 ft | 408 kts | 254° |
| 2026-05-06 19:14 | 46.87600 | -55.15831 | 38251 ft | 408 kts | 254° |
| 2026-05-06 19:15 | 46.85907 | -55.23737 | 38256 ft | 408 kts | 254° |
| 2026-05-06 19:15 | 46.84215 | -55.31605 | 38252 ft | 408 kts | 254° |
| 2026-05-06 19:16 | 46.82509 | -55.39510 | 38261 ft | 407 kts | 254° |
| 2026-05-06 19:16 | 46.80799 | -55.47403 | 38257 ft | 407 kts | 254° |
| 2026-05-06 19:17 | 46.79095 | -55.55238 | 38258 ft | 408 kts | 253° |
| 2026-05-06 19:17 | 46.77374 | -55.63121 | 38255 ft | 408 kts | 253° |
| 2026-05-06 19:18 | 46.75644 | -55.71015 | 38255 ft | 408 kts | 253° |
| 2026-05-06 19:18 | 46.73912 | -55.78892 | 38247 ft | 408 kts | 253° |
| 2026-05-06 19:19 | 46.72174 | -55.86762 | 38247 ft | 408 kts | 253° |
| 2026-05-06 19:19 | 46.70442 | -55.94577 | 38239 ft | 408 kts | 253° |
| 2026-05-06 19:20 | 46.68690 | -56.02453 | 38240 ft | 409 kts | 253° |
| 2026-05-06 19:20 | 46.66931 | -56.10333 | 38239 ft | 409 kts | 253° |
| 2026-05-06 19:21 | 46.65163 | -56.18222 | 38239 ft | 409 kts | 253° |
| 2026-05-06 19:21 | 46.63390 | -56.26104 | 38229 ft | 410 kts | 253° |
| 2026-05-06 19:22 | 46.61624 | -56.33924 | 38231 ft | 410 kts | 253° |
| 2026-05-06 19:22 | 46.59839 | -56.41802 | 38231 ft | 410 kts | 253° |
| 2026-05-06 19:23 | 46.58047 | -56.49684 | 38223 ft | 410 kts | 253° |
| 2026-05-06 19:23 | 46.56248 | -56.57564 | 38225 ft | 410 kts | 253° |
| 2026-05-06 19:24 | 46.54445 | -56.65430 | 38225 ft | 410 kts | 253° |
| 2026-05-06 19:24 | 46.52649 | -56.73244 | 38228 ft | 410 kts | 253° |
| 2026-05-06 19:25 | 46.50836 | -56.81097 | 38223 ft | 409 kts | 253° |
| 2026-05-06 19:25 | 46.49022 | -56.88927 | 38224 ft | 409 kts | 253° |
| 2026-05-06 19:26 | 46.47205 | -56.96745 | 38224 ft | 409 kts | 253° |
| 2026-05-06 19:26 | 46.45382 | -57.04562 | 38222 ft | 409 kts | 253° |
| 2026-05-06 19:27 | 46.43553 | -57.12373 | 38223 ft | 409 kts | 253° |
| 2026-05-06 19:27 | 46.41731 | -57.20129 | 38221 ft | 409 kts | 253° |
| 2026-05-06 19:28 | 46.39890 | -57.27935 | 38224 ft | 408 kts | 253° |
| 2026-05-06 19:28 | 46.38050 | -57.35711 | 38217 ft | 408 kts | 253° |
| 2026-05-06 19:29 | 46.36202 | -57.43489 | 38228 ft | 408 kts | 253° |
| 2026-05-06 19:29 | 46.34360 | -57.51217 | 38216 ft | 405 kts | 253° |
| 2026-05-06 19:30 | 46.32528 | -57.58878 | 38207 ft | 404 kts | 253° |
| 2026-05-06 19:30 | 46.30685 | -57.66560 | 38208 ft | 404 kts | 253° |
| 2026-05-06 19:31 | 46.28836 | -57.74238 | 38213 ft | 404 kts | 253° |
| 2026-05-06 19:31 | 46.26366 | -57.84455 | 38203 ft | 404 kts | 253° |
| 2026-05-06 19:32 | 46.24504 | -57.92124 | 38204 ft | 404 kts | 253° |
| 2026-05-06 19:32 | 46.22335 | -58.01028 | 38204 ft | 404 kts | 253° |
| 2026-05-06 19:33 | 46.20765 | -58.07451 | 38202 ft | 404 kts | 253° |
| 2026-05-06 19:33 | 46.18902 | -58.15044 | 38196 ft | 402 kts | 253° |
| 2026-05-06 19:34 | 46.17033 | -58.22639 | 38197 ft | 401 kts | 253° |
| 2026-05-06 19:34 | 46.15163 | -58.30213 | 38197 ft | 401 kts | 253° |
| 2026-05-06 19:35 | 46.13286 | -58.37790 | 38191 ft | 401 kts | 253° |
| 2026-05-06 19:35 | 46.11402 | -58.45370 | 38192 ft | 401 kts | 253° |
| 2026-05-06 19:36 | 46.09516 | -58.52933 | 38191 ft | 401 kts | 253° |
| 2026-05-06 19:36 | 46.07639 | -58.60435 | 38192 ft | 401 kts | 253° |
| 2026-05-06 19:37 | 46.05741 | -58.67992 | 38186 ft | 401 kts | 253° |
| 2026-05-06 19:37 | 46.03838 | -58.75549 | 38186 ft | 401 kts | 253° |
| 2026-05-06 19:38 | 46.01933 | -58.83090 | 38188 ft | 401 kts | 252° |
| 2026-05-06 19:38 | 46.00021 | -58.90629 | 38181 ft | 401 kts | 252° |
| 2026-05-06 19:39 | 45.98113 | -58.98130 | 38178 ft | 402 kts | 252° |
| 2026-05-06 19:39 | 45.96188 | -59.05673 | 38181 ft | 402 kts | 252° |
| 2026-05-06 19:40 | 45.94258 | -59.13210 | 38178 ft | 402 kts | 252° |
| 2026-05-06 19:40 | 45.92321 | -59.20750 | 38165 ft | 402 kts | 252° |
| 2026-05-06 19:41 | 45.90380 | -59.28280 | 38162 ft | 402 kts | 252° |
| 2026-05-06 19:41 | 45.88432 | -59.35815 | 38162 ft | 403 kts | 252° |
| 2026-05-06 19:42 | 45.86476 | -59.43355 | 38165 ft | 403 kts | 252° |
| 2026-05-06 19:42 | 45.84516 | -59.50886 | 38151 ft | 403 kts | 252° |
| 2026-05-06 19:43 | 45.82567 | -59.58351 | 38154 ft | 403 kts | 252° |
| 2026-05-06 19:43 | 45.80597 | -59.65873 | 38154 ft | 403 kts | 252° |
| 2026-05-06 19:44 | 45.78625 | -59.73379 | 38134 ft | 403 kts | 252° |
| 2026-05-06 19:44 | 45.76639 | -59.80914 | 38146 ft | 404 kts | 252° |
| 2026-05-06 19:45 | 45.74647 | -59.88447 | 38149 ft | 405 kts | 251° |
| 2026-05-06 19:45 | 45.72649 | -59.95977 | 38149 ft | 405 kts | 251° |
| 2026-05-06 19:46 | 45.70646 | -60.03502 | 38140 ft | 405 kts | 251° |
| 2026-05-06 19:46 | 45.68649 | -60.10983 | 38134 ft | 405 kts | 251° |
| 2026-05-06 19:47 | 45.66630 | -60.18520 | 38145 ft | 407 kts | 251° |
| 2026-05-06 19:47 | 45.64601 | -60.26073 | 38145 ft | 407 kts | 251° |
| 2026-05-06 19:48 | 45.62566 | -60.33620 | 38148 ft | 407 kts | 251° |
| 2026-05-06 19:48 | 45.60523 | -60.41176 | 38149 ft | 407 kts | 251° |
| 2026-05-06 19:49 | 45.58475 | -60.48726 | 38140 ft | 407 kts | 251° |
| 2026-05-06 19:49 | 45.56437 | -60.56218 | 38137 ft | 408 kts | 251° |
| 2026-05-06 19:50 | 45.54378 | -60.63760 | 38137 ft | 408 kts | 251° |
| 2026-05-06 19:50 | 45.52309 | -60.71316 | 38144 ft | 408 kts | 251° |
| 2026-05-06 19:51 | 45.50239 | -60.78857 | 38134 ft | 407 kts | 250° |
| 2026-05-06 19:51 | 45.48169 | -60.86366 | 38135 ft | 406 kts | 250° |
| 2026-05-06 19:52 | 45.46098 | -60.93859 | 38124 ft | 406 kts | 250° |
| 2026-05-06 19:52 | 45.44035 | -61.01301 | 38128 ft | 406 kts | 250° |
| 2026-05-06 19:53 | 45.41954 | -61.08782 | 38125 ft | 406 kts | 250° |
| 2026-05-06 19:53 | 45.39870 | -61.16254 | 38125 ft | 406 kts | 250° |
| 2026-05-06 19:54 | 45.37779 | -61.23726 | 38122 ft | 406 kts | 250° |
| 2026-05-06 19:54 | 45.35680 | -61.31202 | 38110 ft | 406 kts | 250° |
| 2026-05-06 19:55 | 45.33594 | -61.38613 | 38115 ft | 406 kts | 250° |
| 2026-05-06 19:55 | 45.31492 | -61.46059 | 38118 ft | 406 kts | 250° |
| 2026-05-06 19:56 | 45.29384 | -61.53498 | 38104 ft | 406 kts | 250° |
| 2026-05-06 19:56 | 45.27271 | -61.60937 | 38105 ft | 406 kts | 249° |
| 2026-05-06 19:57 | 45.25153 | -61.68368 | 38113 ft | 406 kts | 249° |
| 2026-05-06 19:57 | 45.23029 | -61.75799 | 38113 ft | 406 kts | 249° |
| 2026-05-06 19:58 | 45.20899 | -61.83229 | 38123 ft | 406 kts | 249° |
| 2026-05-06 19:58 | 45.18765 | -61.90651 | 38122 ft | 406 kts | 249° |
| 2026-05-06 19:59 | 45.16640 | -61.98018 | 38126 ft | 406 kts | 249° |
| 2026-05-06 19:59 | 45.14500 | -62.05414 | 38119 ft | 404 kts | 249° |
| 2026-05-06 20:00 | 45.12366 | -62.12763 | 38113 ft | 403 kts | 250° |
| 2026-05-06 20:00 | 45.10234 | -62.20086 | 38132 ft | 402 kts | 250° |
| 2026-05-06 20:01 | 45.08097 | -62.27414 | 38129 ft | 402 kts | 250° |
| 2026-05-06 20:01 | 45.05955 | -62.34737 | 38128 ft | 402 kts | 250° |
| 2026-05-06 20:02 | 45.03825 | -62.41991 | 38126 ft | 402 kts | 250° |
| 2026-05-06 20:02 | 45.01673 | -62.49302 | 38134 ft | 402 kts | 250° |
| 2026-05-06 20:03 | 44.99518 | -62.56601 | 38123 ft | 404 kts | 250° |
| 2026-05-06 20:03 | 44.97344 | -62.63943 | 38127 ft | 404 kts | 250° |
| 2026-05-06 20:04 | 44.95190 | -62.71187 | 38125 ft | 400 kts | 251° |
| 2026-05-06 20:04 | 44.93036 | -62.78417 | 38118 ft | 399 kts | 251° |
| 2026-05-06 20:05 | 44.90886 | -62.85620 | 38115 ft | 398 kts | 251° |
| 2026-05-06 20:05 | 44.88728 | -62.92826 | 38117 ft | 399 kts | 250° |
| 2026-05-06 20:06 | 44.86558 | -63.00054 | 38122 ft | 400 kts | 250° |
| 2026-05-06 20:06 | 44.84392 | -63.07239 | 38107 ft | 400 kts | 250° |
| 2026-05-06 20:07 | 44.82212 | -63.14453 | 38101 ft | 400 kts | 250° |
| 2026-05-06 20:07 | 44.80029 | -63.21659 | 38096 ft | 400 kts | 250° |
| 2026-05-06 20:08 | 44.77842 | -63.28854 | 38087 ft | 397 kts | 250° |
| 2026-05-06 20:08 | 44.75680 | -63.35943 | 38115 ft | 391 kts | 250° |
| 2026-05-06 20:09 | 44.73533 | -63.42971 | 38120 ft | 390 kts | 250° |
| 2026-05-06 20:09 | 44.71398 | -63.49945 | 38118 ft | 390 kts | 250° |
| 2026-05-06 20:10 | 44.69244 | -63.56958 | 38118 ft | 390 kts | 250° |
| 2026-05-06 20:10 | 44.67089 | -63.63954 | 38115 ft | 390 kts | 250° |
| 2026-05-06 20:11 | 44.64930 | -63.70944 | 38110 ft | 389 kts | 250° |
| 2026-05-06 20:11 | 44.62785 | -63.77865 | 38078 ft | 388 kts | 250° |
| 2026-05-06 20:12 | 44.60624 | -63.84826 | 38075 ft | 388 kts | 250° |
| 2026-05-06 20:12 | 44.58465 | -63.91756 | 38074 ft | 386 kts | 250° |
| 2026-05-06 20:13 | 44.56317 | -63.98634 | 38065 ft | 384 kts | 250° |
| 2026-05-06 20:13 | 44.54168 | -64.05500 | 38066 ft | 384 kts | 250° |
| 2026-05-06 20:14 | 44.52034 | -64.12299 | 38062 ft | 383 kts | 249° |
| 2026-05-06 20:14 | 44.49885 | -64.19127 | 38061 ft | 383 kts | 249° |
| 2026-05-06 20:15 | 44.47732 | -64.25951 | 38048 ft | 383 kts | 249° |
| 2026-05-06 20:15 | 44.45574 | -64.32772 | 38047 ft | 383 kts | 249° |
| 2026-05-06 20:16 | 44.43410 | -64.39593 | 38047 ft | 383 kts | 249° |
| 2026-05-06 20:16 | 44.41242 | -64.46412 | 38048 ft | 383 kts | 249° |
| 2026-05-06 20:17 | 44.39088 | -64.53168 | 38046 ft | 382 kts | 249° |
| 2026-05-06 20:17 | 44.36920 | -64.59948 | 38055 ft | 382 kts | 249° |
| 2026-05-06 20:18 | 44.34748 | -64.66724 | 38055 ft | 382 kts | 249° |
| 2026-05-06 20:18 | 44.32573 | -64.73490 | 38061 ft | 382 kts | 248° |
| 2026-05-06 20:19 | 44.30407 | -64.80213 | 38050 ft | 382 kts | 249° |
| 2026-05-06 20:19 | 44.28221 | -64.86981 | 38070 ft | 383 kts | 249° |
| 2026-05-06 20:20 | 44.26030 | -64.93749 | 38072 ft | 383 kts | 248° |
| 2026-05-06 20:20 | 44.23832 | -65.00517 | 38064 ft | 383 kts | 248° |
| 2026-05-06 20:21 | 44.21632 | -65.07278 | 38080 ft | 383 kts | 248° |
| 2026-05-06 20:21 | 44.19432 | -65.14018 | 38066 ft | 380 kts | 248° |
| 2026-05-06 20:22 | 44.17239 | -65.20720 | 38057 ft | 380 kts | 248° |
| 2026-05-06 20:22 | 44.15043 | -65.27415 | 38058 ft | 380 kts | 248° |
| 2026-05-06 20:23 | 44.12856 | -65.34067 | 38059 ft | 380 kts | 248° |
| 2026-05-06 20:23 | 44.10648 | -65.40766 | 38059 ft | 380 kts | 248° |
| 2026-05-06 20:24 | 44.08439 | -65.47449 | 38048 ft | 380 kts | 248° |
| 2026-05-06 20:24 | 44.06226 | -65.54130 | 38050 ft | 380 kts | 248° |
| 2026-05-06 20:25 | 44.04021 | -65.60768 | 38055 ft | 380 kts | 248° |
| 2026-05-06 20:25 | 44.01801 | -65.67436 | 38048 ft | 379 kts | 247° |
| 2026-05-06 20:26 | 43.99587 | -65.74066 | 38041 ft | 378 kts | 247° |
| 2026-05-06 20:26 | 43.97375 | -65.80678 | 38040 ft | 377 kts | 247° |
| 2026-05-06 20:27 | 43.95534 | -65.86169 | 38039 ft | 377 kts | 247° |
| 2026-05-06 20:27 | 43.93314 | -65.92771 | 38029 ft | 377 kts | 247° |
| 2026-05-06 20:28 | 43.91093 | -65.99362 | 38026 ft | 377 kts | 247° |
| 2026-05-06 20:28 | 43.88869 | -66.05946 | 38027 ft | 377 kts | 247° |
| 2026-05-06 20:29 | 43.86657 | -66.12479 | 38026 ft | 377 kts | 247° |
| 2026-05-06 20:29 | 43.84423 | -66.19061 | 38025 ft | 377 kts | 247° |
| 2026-05-06 20:30 | 43.81082 | -66.28877 | 38023 ft | 373 kts | 246° |
| 2026-05-06 20:31 | 43.78865 | -66.35366 | 38019 ft | 373 kts | 246° |
| 2026-05-06 20:31 | 43.76644 | -66.41854 | 38008 ft | 372 kts | 246° |
| 2026-05-06 20:32 | 43.74436 | -66.48290 | 38007 ft | 372 kts | 246° |
| 2026-05-06 20:32 | 43.72210 | -66.54760 | 37996 ft | 372 kts | 246° |
| 2026-05-06 20:33 | 43.69982 | -66.61224 | 37981 ft | 372 kts | 246° |
| 2026-05-06 20:33 | 43.67747 | -66.67689 | 37982 ft | 373 kts | 246° |
| 2026-05-06 20:34 | 43.65510 | -66.74148 | 37982 ft | 373 kts | 246° |
| 2026-05-06 20:34 | 43.63286 | -66.80555 | 37984 ft | 372 kts | 246° |
| 2026-05-06 20:35 | 43.61042 | -66.87002 | 37977 ft | 372 kts | 246° |
| 2026-05-06 20:35 | 43.58795 | -66.93441 | 37976 ft | 372 kts | 246° |
| 2026-05-06 20:36 | 43.56571 | -66.99894 | 37974 ft | 372 kts | 248° |
| 2026-05-06 20:36 | 43.54669 | -67.06521 | 37965 ft | 371 kts | 250° |
| 2026-05-06 20:37 | 43.52831 | -67.13126 | 37965 ft | 371 kts | 250° |
| 2026-05-06 20:37 | 43.50973 | -67.19771 | 37965 ft | 372 kts | 250° |
| 2026-05-06 20:38 | 43.49108 | -67.26410 | 37958 ft | 372 kts | 250° |
| 2026-05-06 20:38 | 43.47240 | -67.33043 | 37959 ft | 372 kts | 250° |
| 2026-05-06 20:39 | 43.45369 | -67.39667 | 37961 ft | 371 kts | 250° |
| 2026-05-06 20:39 | 43.43495 | -67.46283 | 37953 ft | 371 kts | 250° |
| 2026-05-06 20:40 | 43.41618 | -67.52893 | 37946 ft | 371 kts | 250° |
| 2026-05-06 20:40 | 43.39749 | -67.59459 | 37951 ft | 371 kts | 250° |
| 2026-05-06 20:41 | 43.37863 | -67.66064 | 37951 ft | 371 kts | 250° |
| 2026-05-06 20:41 | 43.35973 | -67.72669 | 37952 ft | 371 kts | 250° |
| 2026-05-06 20:42 | 43.34082 | -67.79255 | 37954 ft | 370 kts | 250° |
| 2026-05-06 20:42 | 43.32192 | -67.85828 | 37949 ft | 370 kts | 249° |
| 2026-05-06 20:43 | 43.30291 | -67.92416 | 37943 ft | 371 kts | 249° |
| 2026-05-06 20:43 | 43.28387 | -67.98997 | 37947 ft | 371 kts | 249° |
| 2026-05-06 20:44 | 43.26491 | -68.05537 | 37939 ft | 371 kts | 249° |
| 2026-05-06 20:44 | 43.24576 | -68.12122 | 37937 ft | 371 kts | 249° |
| 2026-05-06 20:45 | 43.22653 | -68.18718 | 37943 ft | 373 kts | 249° |
| 2026-05-06 20:45 | 43.20723 | -68.25323 | 37933 ft | 373 kts | 249° |
| 2026-05-06 20:46 | 43.18790 | -68.31921 | 37931 ft | 373 kts | 249° |
| 2026-05-06 20:46 | 43.16866 | -68.38467 | 37934 ft | 372 kts | 249° |
| 2026-05-06 20:47 | 43.14930 | -68.45044 | 37926 ft | 372 kts | 249° |
| 2026-05-06 20:47 | 43.12991 | -68.51608 | 37904 ft | 372 kts | 249° |
| 2026-05-06 20:48 | 43.11052 | -68.58156 | 37928 ft | 370 kts | 250° |
| 2026-05-06 20:48 | 43.09126 | -68.64647 | 37917 ft | 370 kts | 250° |
| 2026-05-06 20:49 | 43.07186 | -68.71168 | 37917 ft | 370 kts | 250° |
| 2026-05-06 20:49 | 43.05241 | -68.77686 | 37913 ft | 370 kts | 250° |
| 2026-05-06 20:50 | 43.03294 | -68.84197 | 37933 ft | 370 kts | 249° |
| 2026-05-06 20:50 | 43.01343 | -68.90703 | 37907 ft | 369 kts | 249° |
| 2026-05-06 20:51 | 42.99393 | -68.97189 | 37789 ft | 367 kts | 250° |
| 2026-05-06 20:51 | 42.98426 | -69.00400 | 37119 ft | 366 kts | 249° |
| 2026-05-06 20:51 | 42.97455 | -69.03621 | 36297 ft | 369 kts | 249° |
| 2026-05-06 20:51 | 42.96471 | -69.06885 | 35417 ft | 373 kts | 248° |
| 2026-05-06 20:52 | 42.95476 | -69.10178 | 34554 ft | 378 kts | 247° |
| 2026-05-06 20:52 | 42.94463 | -69.13524 | 33647 ft | 383 kts | 246° |
| 2026-05-06 20:52 | 42.93436 | -69.16910 | 32707 ft | 387 kts | 246° |
| 2026-05-06 20:52 | 42.92401 | -69.20316 | 31883 ft | 389 kts | 246° |
| 2026-05-06 20:53 | 42.91380 | -69.23678 | 31145 ft | 389 kts | 246° |
| 2026-05-06 20:53 | 42.90341 | -69.27095 | 30283 ft | 390 kts | 246° |
| 2026-05-06 20:53 | 42.89295 | -69.30527 | 29276 ft | 394 kts | 246° |
| 2026-05-06 20:53 | 42.88237 | -69.33990 | 28260 ft | 396 kts | 246° |
| 2026-05-06 20:54 | 42.87175 | -69.37463 | 27314 ft | 397 kts | 246° |
| 2026-05-06 20:54 | 42.86116 | -69.40928 | 26487 ft | 395 kts | 246° |
| 2026-05-06 20:54 | 42.85063 | -69.44365 | 25785 ft | 390 kts | 246° |
| 2026-05-06 20:54 | 42.84022 | -69.47759 | 25108 ft | 385 kts | 246° |
| 2026-05-06 20:55 | 42.82994 | -69.51108 | 24452 ft | 381 kts | 246° |
| 2026-05-06 20:55 | 42.81978 | -69.54414 | 23784 ft | 377 kts | 246° |
| 2026-05-06 20:55 | 42.80965 | -69.57703 | 22952 ft | 376 kts | 246° |
| 2026-05-06 20:55 | 42.79959 | -69.60968 | 22227 ft | 371 kts | 246° |
| 2026-05-06 20:56 | 42.78970 | -69.64172 | 21542 ft | 365 kts | 246° |
| 2026-05-06 20:56 | 42.77993 | -69.67336 | 20845 ft | 359 kts | 246° |
| 2026-05-06 20:56 | 42.77027 | -69.70457 | 20071 ft | 356 kts | 246° |
| 2026-05-06 20:56 | 42.76067 | -69.73556 | 19326 ft | 354 kts | 246° |
| 2026-05-06 20:57 | 42.75128 | -69.76584 | 18666 ft | 349 kts | 246° |
| 2026-05-06 20:57 | 42.74189 | -69.79607 | 17986 ft | 345 kts | 246° |
| 2026-05-06 20:57 | 42.73261 | -69.82594 | 17243 ft | 340 kts | 246° |
| 2026-05-06 20:57 | 42.72346 | -69.85537 | 16531 ft | 336 kts | 246° |
| 2026-05-06 20:58 | 42.71441 | -69.88441 | 15841 ft | 331 kts | 246° |
| 2026-05-06 20:58 | 42.70544 | -69.91313 | 15132 ft | 328 kts | 246° |
| 2026-05-06 20:58 | 42.69660 | -69.94147 | 14456 ft | 323 kts | 246° |
| 2026-05-06 20:58 | 42.68787 | -69.96942 | 13802 ft | 319 kts | 246° |
| 2026-05-06 20:59 | 42.67924 | -69.99702 | 13052 ft | 316 kts | 246° |
| 2026-05-06 20:59 | 42.67069 | -70.02438 | 12322 ft | 312 kts | 245° |
| 2026-05-06 20:59 | 42.66236 | -70.05101 | 11972 ft | 298 kts | 245° |
| 2026-05-06 20:59 | 42.65446 | -70.07621 | 11730 ft | 282 kts | 244° |
| 2026-05-06 21:00 | 42.64669 | -70.09976 | 11481 ft | 262 kts | 242° |
| 2026-05-06 21:00 | 42.63932 | -70.12143 | 11047 ft | 246 kts | 242° |
| 2026-05-06 21:00 | 42.63219 | -70.14223 | 10403 ft | 240 kts | 241° |
| 2026-05-06 21:00 | 42.62517 | -70.16264 | 9708 ft | 238 kts | 240° |
| 2026-05-06 21:01 | 42.61819 | -70.18289 | 8925 ft | 236 kts | 240° |
| 2026-05-06 21:01 | 42.61134 | -70.20275 | 8187 ft | 234 kts | 241° |
| 2026-05-06 21:01 | 42.60480 | -70.22299 | 7654 ft | 235 kts | 246° |
| 2026-05-06 21:01 | 42.60111 | -70.24461 | 7238 ft | 237 kts | 256° |
| 2026-05-06 21:02 | 42.59968 | -70.26684 | 7042 ft | 236 kts | 258° |
| 2026-05-06 21:02 | 42.59869 | -70.28917 | 7014 ft | 238 kts | 259° |
| 2026-05-06 21:02 | 42.59773 | -70.31164 | 7020 ft | 238 kts | 259° |
| 2026-05-06 21:02 | 42.59676 | -70.33407 | 7009 ft | 238 kts | 259° |
| 2026-05-06 21:03 | 42.59589 | -70.35648 | 6990 ft | 239 kts | 260° |
| 2026-05-06 21:03 | 42.59546 | -70.37909 | 6994 ft | 240 kts | 261° |
| 2026-05-06 21:03 | 42.59515 | -70.40171 | 7006 ft | 240 kts | 261° |
| 2026-05-06 21:03 | 42.59482 | -70.42431 | 7007 ft | 240 kts | 261° |
| 2026-05-06 21:04 | 42.59446 | -70.44666 | 7005 ft | 239 kts | 261° |
| 2026-05-06 21:04 | 42.59407 | -70.46923 | 7006 ft | 239 kts | 261° |
| 2026-05-06 21:04 | 42.59367 | -70.49181 | 6998 ft | 239 kts | 261° |
| 2026-05-06 21:04 | 42.59326 | -70.51442 | 6992 ft | 239 kts | 261° |
| 2026-05-06 21:05 | 42.59284 | -70.53697 | 6997 ft | 239 kts | 261° |
| 2026-05-06 21:05 | 42.59241 | -70.55946 | 7004 ft | 237 kts | 261° |
| 2026-05-06 21:05 | 42.59200 | -70.58174 | 6997 ft | 235 kts | 261° |
| 2026-05-06 21:05 | 42.59158 | -70.60389 | 6994 ft | 234 kts | 261° |
| 2026-05-06 21:06 | 42.59115 | -70.62568 | 6988 ft | 234 kts | 261° |
| 2026-05-06 21:06 | 42.59072 | -70.64772 | 6966 ft | 233 kts | 261° |
| 2026-05-06 21:06 | 42.59027 | -70.66960 | 6589 ft | 231 kts | 261° |
| 2026-05-06 21:06 | 42.58984 | -70.69132 | 6119 ft | 230 kts | 260° |
| 2026-05-06 21:07 | 42.58940 | -70.71297 | 5601 ft | 230 kts | 260° |
| 2026-05-06 21:07 | 42.58893 | -70.73468 | 5076 ft | 231 kts | 261° |
| 2026-05-06 21:07 | 42.58846 | -70.75652 | 4526 ft | 232 kts | 261° |
| 2026-05-06 21:07 | 42.58801 | -70.77827 | 4113 ft | 228 kts | 262° |
| 2026-05-06 21:08 | 42.58760 | -70.79963 | 3996 ft | 226 kts | 261° |
| 2026-05-06 21:08 | 42.58718 | -70.82123 | 3993 ft | 232 kts | 261° |
| 2026-05-06 21:08 | 42.58671 | -70.84318 | 3993 ft | 233 kts | 261° |
| 2026-05-06 21:08 | 42.58542 | -70.86463 | 3928 ft | 229 kts | 253° |
| 2026-05-06 21:09 | 42.58038 | -70.88471 | 3466 ft | 223 kts | 238° |
| 2026-05-06 21:09 | 42.57085 | -70.90066 | 3099 ft | 213 kts | 221° |
| 2026-05-06 21:09 | 42.55834 | -70.91139 | 2402 ft | 216 kts | 206° |
| 2026-05-06 21:09 | 42.54432 | -70.91878 | 1883 ft | 213 kts | 200° |
| 2026-05-06 21:10 | 42.53075 | -70.92510 | 1594 ft | 199 kts | 199° |
| 2026-05-06 21:10 | 42.51789 | -70.93114 | 1603 ft | 195 kts | 200° |
| 2026-05-06 21:10 | 42.50551 | -70.93706 | 1712 ft | 180 kts | 199° |
| 2026-05-06 21:10 | 42.49398 | -70.94274 | 1719 ft | 170 kts | 199° |
| 2026-05-06 21:11 | 42.48344 | -70.94788 | 1696 ft | 151 kts | 200° |
| 2026-05-06 21:11 | 42.47454 | -70.95215 | 1726 ft | 125 kts | 201° |
| 2026-05-06 21:11 | 42.46664 | -70.95588 | 1695 ft | 120 kts | 201° |
| 2026-05-06 21:11 | 42.45876 | -70.95966 | 1694 ft | 120 kts | 201° |
| 2026-05-06 21:12 | 42.45083 | -70.96349 | 1676 ft | 121 kts | 201° |
| 2026-05-06 21:12 | 42.44292 | -70.96733 | 1527 ft | 120 kts | 200° |
| 2026-05-06 21:12 | 42.43506 | -70.97114 | 1363 ft | 119 kts | 200° |
| 2026-05-06 21:12 | 42.42728 | -70.97491 | 1198 ft | 120 kts | 201° |